<?xml version="1.0" encoding="UTF-8" standalone="no" ?>
<gpx xmlns="http://www.topografix.com/GPX/1/1" xmlns:xsi="http://www.w3.org/2001/XMLSchema-instance" xsi:schemaLocation="http://www.topografix.com/GPX/1/1 http://www.topografix.com/GPX/1/1/gpx.xsd" version="1.1" creator="VisuGPX - https://www.visugpx.com">
  <metadata>
    <name>balade du 19/10/14 Enieu-Charette</name>
    <desc><![CDATA[un beau soleil, des chemins agréables,l'occasoin de tester le gps iphigenie...]]></desc>
  </metadata>
  <trk>
    <name><![CDATA[balade du19 oct. 2014]]></name>
    <cmt><![CDATA[12:24:31]]></cmt>
    <desc><![CDATA[comment ...]]></desc>
    <trkseg>
      <trkpt lat="45.77207" lon="5.34866">
        <ele>330</ele>
        <time>2014-10-19T12:24:32Z</time>
      </trkpt>
      <trkpt lat="45.772" lon="5.3487">
        <ele>330</ele>
        <time>2014-10-19T12:24:33Z</time>
      </trkpt>
      <trkpt lat="45.77195" lon="5.34869">
        <ele>330</ele>
        <time>2014-10-19T12:24:36Z</time>
      </trkpt>
      <trkpt lat="45.77192" lon="5.34872">
        <ele>330</ele>
        <time>2014-10-19T12:24:39Z</time>
      </trkpt>
      <trkpt lat="45.77162" lon="5.3491">
        <ele>330</ele>
        <time>2014-10-19T12:25:06Z</time>
      </trkpt>
      <trkpt lat="45.77161" lon="5.34921">
        <ele>330</ele>
        <time>2014-10-19T12:25:10Z</time>
      </trkpt>
      <trkpt lat="45.77136" lon="5.34961">
        <ele>329</ele>
        <time>2014-10-19T12:25:35Z</time>
      </trkpt>
      <trkpt lat="45.77139" lon="5.34964">
        <ele>329</ele>
        <time>2014-10-19T12:25:39Z</time>
      </trkpt>
      <trkpt lat="45.77173" lon="5.3501">
        <ele>331</ele>
        <time>2014-10-19T12:26:10Z</time>
      </trkpt>
      <trkpt lat="45.77188" lon="5.35034">
        <ele>333</ele>
        <time>2014-10-19T12:26:25Z</time>
      </trkpt>
      <trkpt lat="45.77187" lon="5.35041">
        <ele>333</ele>
        <time>2014-10-19T12:26:28Z</time>
      </trkpt>
      <trkpt lat="45.77171" lon="5.35069">
        <ele>333</ele>
        <time>2014-10-19T12:26:42Z</time>
      </trkpt>
      <trkpt lat="45.77135" lon="5.35119">
        <ele>334</ele>
        <time>2014-10-19T12:27:12Z</time>
      </trkpt>
      <trkpt lat="45.77139" lon="5.35136">
        <ele>335</ele>
        <time>2014-10-19T12:27:19Z</time>
      </trkpt>
      <trkpt lat="45.77157" lon="5.35159">
        <ele>338</ele>
        <time>2014-10-19T12:27:33Z</time>
      </trkpt>
      <trkpt lat="45.77191" lon="5.35193">
        <ele>346</ele>
        <time>2014-10-19T12:28:03Z</time>
      </trkpt>
      <trkpt lat="45.77197" lon="5.352">
        <ele>348</ele>
        <time>2014-10-19T12:28:09Z</time>
      </trkpt>
      <trkpt lat="45.77198" lon="5.35205">
        <ele>349</ele>
        <time>2014-10-19T12:28:13Z</time>
      </trkpt>
      <trkpt lat="45.77163" lon="5.35255">
        <ele>357</ele>
        <time>2014-10-19T12:28:45Z</time>
      </trkpt>
      <trkpt lat="45.77133" lon="5.35306">
        <ele>362</ele>
        <time>2014-10-19T12:29:15Z</time>
      </trkpt>
      <trkpt lat="45.77106" lon="5.35361">
        <ele>367</ele>
        <time>2014-10-19T12:29:46Z</time>
      </trkpt>
      <trkpt lat="45.77085" lon="5.35412">
        <ele>369</ele>
        <time>2014-10-19T12:30:16Z</time>
      </trkpt>
      <trkpt lat="45.77069" lon="5.35467">
        <ele>368</ele>
        <time>2014-10-19T12:30:46Z</time>
      </trkpt>
      <trkpt lat="45.77056" lon="5.35522">
        <ele>370</ele>
        <time>2014-10-19T12:31:16Z</time>
      </trkpt>
      <trkpt lat="45.7705" lon="5.35591">
        <ele>371</ele>
        <time>2014-10-19T12:31:47Z</time>
      </trkpt>
      <trkpt lat="45.77056" lon="5.35628">
        <ele>372</ele>
        <time>2014-10-19T12:32:05Z</time>
      </trkpt>
      <trkpt lat="45.77055" lon="5.35631">
        <ele>371</ele>
        <time>2014-10-19T12:32:08Z</time>
      </trkpt>
      <trkpt lat="45.77005" lon="5.35661">
        <ele>367</ele>
        <time>2014-10-19T12:32:39Z</time>
      </trkpt>
      <trkpt lat="45.76959" lon="5.35683">
        <ele>365</ele>
        <time>2014-10-19T12:33:10Z</time>
      </trkpt>
      <trkpt lat="45.76917" lon="5.35706">
        <ele>366</ele>
        <time>2014-10-19T12:33:41Z</time>
      </trkpt>
      <trkpt lat="45.76895" lon="5.35768">
        <ele>368</ele>
        <time>2014-10-19T12:34:11Z</time>
      </trkpt>
      <trkpt lat="45.76879" lon="5.35834">
        <ele>370</ele>
        <time>2014-10-19T12:34:42Z</time>
      </trkpt>
      <trkpt lat="45.76876" lon="5.35906">
        <ele>374</ele>
        <time>2014-10-19T12:35:14Z</time>
      </trkpt>
      <trkpt lat="45.76861" lon="5.3596">
        <ele>377</ele>
        <time>2014-10-19T12:35:44Z</time>
      </trkpt>
      <trkpt lat="45.7683" lon="5.36001">
        <ele>376</ele>
        <time>2014-10-19T12:36:15Z</time>
      </trkpt>
      <trkpt lat="45.76801" lon="5.36038">
        <ele>375</ele>
        <time>2014-10-19T12:36:46Z</time>
      </trkpt>
      <trkpt lat="45.76764" lon="5.36071">
        <ele>371</ele>
        <time>2014-10-19T12:37:17Z</time>
      </trkpt>
      <trkpt lat="45.7673" lon="5.36101">
        <ele>368</ele>
        <time>2014-10-19T12:37:48Z</time>
      </trkpt>
      <trkpt lat="45.7671" lon="5.36113">
        <ele>366</ele>
        <time>2014-10-19T12:38:04Z</time>
      </trkpt>
      <trkpt lat="45.76711" lon="5.36116">
        <ele>366</ele>
        <time>2014-10-19T12:38:08Z</time>
      </trkpt>
      <trkpt lat="45.76749" lon="5.36151">
        <ele>364</ele>
        <time>2014-10-19T12:38:39Z</time>
      </trkpt>
      <trkpt lat="45.76787" lon="5.36176">
        <ele>359</ele>
        <time>2014-10-19T12:39:11Z</time>
      </trkpt>
      <trkpt lat="45.76785" lon="5.36186">
        <ele>358</ele>
        <time>2014-10-19T12:39:17Z</time>
      </trkpt>
      <trkpt lat="45.7675" lon="5.36236">
        <ele>355</ele>
        <time>2014-10-19T12:39:48Z</time>
      </trkpt>
      <trkpt lat="45.76728" lon="5.36294">
        <ele>354</ele>
        <time>2014-10-19T12:40:19Z</time>
      </trkpt>
      <trkpt lat="45.76718" lon="5.36311">
        <ele>353</ele>
        <time>2014-10-19T12:40:31Z</time>
      </trkpt>
      <trkpt lat="45.76719" lon="5.36329">
        <ele>353</ele>
        <time>2014-10-19T12:40:38Z</time>
      </trkpt>
      <trkpt lat="45.76728" lon="5.36392">
        <ele>352</ele>
        <time>2014-10-19T12:41:10Z</time>
      </trkpt>
      <trkpt lat="45.76705" lon="5.36453">
        <ele>352</ele>
        <time>2014-10-19T12:41:41Z</time>
      </trkpt>
      <trkpt lat="45.76691" lon="5.36483">
        <ele>351</ele>
        <time>2014-10-19T12:41:59Z</time>
      </trkpt>
      <trkpt lat="45.76712" lon="5.36543">
        <ele>348</ele>
        <time>2014-10-19T12:42:30Z</time>
      </trkpt>
      <trkpt lat="45.7674" lon="5.36586">
        <ele>341</ele>
        <time>2014-10-19T12:43:01Z</time>
      </trkpt>
      <trkpt lat="45.76747" lon="5.36615">
        <ele>338</ele>
        <time>2014-10-19T12:43:18Z</time>
      </trkpt>
      <trkpt lat="45.76723" lon="5.36668">
        <ele>335</ele>
        <time>2014-10-19T12:43:48Z</time>
      </trkpt>
      <trkpt lat="45.76701" lon="5.36726">
        <ele>335</ele>
        <time>2014-10-19T12:44:20Z</time>
      </trkpt>
      <trkpt lat="45.76688" lon="5.36785">
        <ele>333</ele>
        <time>2014-10-19T12:44:51Z</time>
      </trkpt>
      <trkpt lat="45.76646" lon="5.36826">
        <ele>332</ele>
        <time>2014-10-19T12:45:21Z</time>
      </trkpt>
      <trkpt lat="45.76604" lon="5.3686">
        <ele>334</ele>
        <time>2014-10-19T12:45:51Z</time>
      </trkpt>
      <trkpt lat="45.76558" lon="5.36892">
        <ele>333</ele>
        <time>2014-10-19T12:46:21Z</time>
      </trkpt>
      <trkpt lat="45.76533" lon="5.36917">
        <ele>332</ele>
        <time>2014-10-19T12:46:40Z</time>
      </trkpt>
      <trkpt lat="45.76533" lon="5.36923">
        <ele>333</ele>
        <time>2014-10-19T12:46:44Z</time>
      </trkpt>
      <trkpt lat="45.76538" lon="5.3694">
        <ele>333</ele>
        <time>2014-10-19T12:46:52Z</time>
      </trkpt>
      <trkpt lat="45.76573" lon="5.36973">
        <ele>331</ele>
        <time>2014-10-19T12:47:22Z</time>
      </trkpt>
      <trkpt lat="45.76608" lon="5.36994">
        <ele>327</ele>
        <time>2014-10-19T12:47:52Z</time>
      </trkpt>
      <trkpt lat="45.76625" lon="5.37008">
        <ele>322</ele>
        <time>2014-10-19T12:48:08Z</time>
      </trkpt>
      <trkpt lat="45.76626" lon="5.37014">
        <ele>321</ele>
        <time>2014-10-19T12:48:12Z</time>
      </trkpt>
      <trkpt lat="45.76618" lon="5.37026">
        <ele>320</ele>
        <time>2014-10-19T12:48:19Z</time>
      </trkpt>
      <trkpt lat="45.76585" lon="5.37065">
        <ele>313</ele>
        <time>2014-10-19T12:48:50Z</time>
      </trkpt>
      <trkpt lat="45.76548" lon="5.37103">
        <ele>311</ele>
        <time>2014-10-19T12:49:19Z</time>
      </trkpt>
      <trkpt lat="45.76549" lon="5.37109">
        <ele>311</ele>
        <time>2014-10-19T12:49:22Z</time>
      </trkpt>
      <trkpt lat="45.76562" lon="5.37165">
        <ele>305</ele>
        <time>2014-10-19T12:49:52Z</time>
      </trkpt>
      <trkpt lat="45.76576" lon="5.37197">
        <ele>300</ele>
        <time>2014-10-19T12:50:23Z</time>
      </trkpt>
      <trkpt lat="45.76609" lon="5.37242">
        <ele>296</ele>
        <time>2014-10-19T12:50:53Z</time>
      </trkpt>
      <trkpt lat="45.76647" lon="5.37291">
        <ele>292</ele>
        <time>2014-10-19T12:51:24Z</time>
      </trkpt>
      <trkpt lat="45.76687" lon="5.37337">
        <ele>289</ele>
        <time>2014-10-19T12:51:56Z</time>
      </trkpt>
      <trkpt lat="45.76721" lon="5.37372">
        <ele>284</ele>
        <time>2014-10-19T12:52:26Z</time>
      </trkpt>
      <trkpt lat="45.76738" lon="5.37385">
        <ele>284</ele>
        <time>2014-10-19T12:52:41Z</time>
      </trkpt>
      <trkpt lat="45.7676" lon="5.37377">
        <ele>283</ele>
        <time>2014-10-19T12:53:00Z</time>
      </trkpt>
      <trkpt lat="45.76791" lon="5.37418">
        <ele>281</ele>
        <time>2014-10-19T12:53:30Z</time>
      </trkpt>
      <trkpt lat="45.7682" lon="5.37471">
        <ele>280</ele>
        <time>2014-10-19T12:54:01Z</time>
      </trkpt>
      <trkpt lat="45.76846" lon="5.37529">
        <ele>279</ele>
        <time>2014-10-19T12:54:31Z</time>
      </trkpt>
      <trkpt lat="45.76865" lon="5.37573">
        <ele>279</ele>
        <time>2014-10-19T12:55:01Z</time>
      </trkpt>
      <trkpt lat="45.76893" lon="5.37624">
        <ele>279</ele>
        <time>2014-10-19T12:55:31Z</time>
      </trkpt>
      <trkpt lat="45.76923" lon="5.37669">
        <ele>281</ele>
        <time>2014-10-19T12:56:03Z</time>
      </trkpt>
      <trkpt lat="45.7697" lon="5.37657">
        <ele>280</ele>
        <time>2014-10-19T12:56:34Z</time>
      </trkpt>
      <trkpt lat="45.77013" lon="5.37637">
        <ele>278</ele>
        <time>2014-10-19T12:57:04Z</time>
      </trkpt>
      <trkpt lat="45.77057" lon="5.37618">
        <ele>276</ele>
        <time>2014-10-19T12:57:34Z</time>
      </trkpt>
      <trkpt lat="45.77097" lon="5.37605">
        <ele>274</ele>
        <time>2014-10-19T12:58:04Z</time>
      </trkpt>
      <trkpt lat="45.77137" lon="5.37621">
        <ele>272</ele>
        <time>2014-10-19T12:58:34Z</time>
      </trkpt>
      <trkpt lat="45.77169" lon="5.37662">
        <ele>270</ele>
        <time>2014-10-19T12:59:05Z</time>
      </trkpt>
      <trkpt lat="45.77207" lon="5.37713">
        <ele>269</ele>
        <time>2014-10-19T12:59:35Z</time>
      </trkpt>
      <trkpt lat="45.77249" lon="5.37751">
        <ele>267</ele>
        <time>2014-10-19T13:00:05Z</time>
      </trkpt>
      <trkpt lat="45.77282" lon="5.37803">
        <ele>269</ele>
        <time>2014-10-19T13:00:36Z</time>
      </trkpt>
      <trkpt lat="45.77321" lon="5.37849">
        <ele>272</ele>
        <time>2014-10-19T13:01:06Z</time>
      </trkpt>
      <trkpt lat="45.77362" lon="5.37889">
        <ele>276</ele>
        <time>2014-10-19T13:01:36Z</time>
      </trkpt>
      <trkpt lat="45.77394" lon="5.37947">
        <ele>279</ele>
        <time>2014-10-19T13:02:06Z</time>
      </trkpt>
      <trkpt lat="45.77424" lon="5.37993">
        <ele>281</ele>
        <time>2014-10-19T13:02:36Z</time>
      </trkpt>
      <trkpt lat="45.77438" lon="5.38043">
        <ele>281</ele>
        <time>2014-10-19T13:02:59Z</time>
      </trkpt>
      <trkpt lat="45.77444" lon="5.38112">
        <ele>281</ele>
        <time>2014-10-19T13:03:29Z</time>
      </trkpt>
      <trkpt lat="45.77442" lon="5.38122">
        <ele>281</ele>
        <time>2014-10-19T13:03:33Z</time>
      </trkpt>
      <trkpt lat="45.7744" lon="5.38125">
        <ele>282</ele>
        <time>2014-10-19T13:03:35Z</time>
      </trkpt>
      <trkpt lat="45.77438" lon="5.38124">
        <ele>283</ele>
        <time>2014-10-19T13:04:07Z</time>
      </trkpt>
      <trkpt lat="45.77436" lon="5.38131">
        <ele>283</ele>
        <time>2014-10-19T13:04:33Z</time>
      </trkpt>
      <trkpt lat="45.77435" lon="5.38136">
        <ele>283</ele>
        <time>2014-10-19T13:04:36Z</time>
      </trkpt>
      <trkpt lat="45.77431" lon="5.38143">
        <ele>284</ele>
        <time>2014-10-19T13:04:42Z</time>
      </trkpt>
      <trkpt lat="45.77384" lon="5.38185">
        <ele>285</ele>
        <time>2014-10-19T13:05:12Z</time>
      </trkpt>
      <trkpt lat="45.7734" lon="5.38224">
        <ele>284</ele>
        <time>2014-10-19T13:05:42Z</time>
      </trkpt>
      <trkpt lat="45.77296" lon="5.38267">
        <ele>284</ele>
        <time>2014-10-19T13:06:12Z</time>
      </trkpt>
      <trkpt lat="45.77255" lon="5.38304">
        <ele>283</ele>
        <time>2014-10-19T13:06:41Z</time>
      </trkpt>
      <trkpt lat="45.77198" lon="5.38302">
        <ele>282</ele>
        <time>2014-10-19T13:07:11Z</time>
      </trkpt>
      <trkpt lat="45.77143" lon="5.38312">
        <ele>280</ele>
        <time>2014-10-19T13:07:42Z</time>
      </trkpt>
      <trkpt lat="45.77087" lon="5.38327">
        <ele>274</ele>
        <time>2014-10-19T13:08:13Z</time>
      </trkpt>
      <trkpt lat="45.77044" lon="5.38327">
        <ele>270</ele>
        <time>2014-10-19T13:08:41Z</time>
      </trkpt>
      <trkpt lat="45.76998" lon="5.38331">
        <ele>271</ele>
        <time>2014-10-19T13:09:11Z</time>
      </trkpt>
      <trkpt lat="45.76954" lon="5.38371">
        <ele>273</ele>
        <time>2014-10-19T13:09:41Z</time>
      </trkpt>
      <trkpt lat="45.76911" lon="5.3842">
        <ele>274</ele>
        <time>2014-10-19T13:10:12Z</time>
      </trkpt>
      <trkpt lat="45.7687" lon="5.3847">
        <ele>275</ele>
        <time>2014-10-19T13:10:43Z</time>
      </trkpt>
      <trkpt lat="45.76839" lon="5.38531">
        <ele>277</ele>
        <time>2014-10-19T13:11:14Z</time>
      </trkpt>
      <trkpt lat="45.76818" lon="5.38594">
        <ele>277</ele>
        <time>2014-10-19T13:11:44Z</time>
      </trkpt>
      <trkpt lat="45.76784" lon="5.38657">
        <ele>279</ele>
        <time>2014-10-19T13:12:14Z</time>
      </trkpt>
      <trkpt lat="45.76741" lon="5.38712">
        <ele>279</ele>
        <time>2014-10-19T13:12:45Z</time>
      </trkpt>
      <trkpt lat="45.76704" lon="5.38772">
        <ele>280</ele>
        <time>2014-10-19T13:13:15Z</time>
      </trkpt>
      <trkpt lat="45.7667" lon="5.3883">
        <ele>282</ele>
        <time>2014-10-19T13:13:45Z</time>
      </trkpt>
      <trkpt lat="45.76638" lon="5.3889">
        <ele>282</ele>
        <time>2014-10-19T13:14:16Z</time>
      </trkpt>
      <trkpt lat="45.76635" lon="5.38901">
        <ele>282</ele>
        <time>2014-10-19T13:14:21Z</time>
      </trkpt>
      <trkpt lat="45.76635" lon="5.38905">
        <ele>282</ele>
        <time>2014-10-19T13:14:23Z</time>
      </trkpt>
      <trkpt lat="45.76679" lon="5.38948">
        <ele>278</ele>
        <time>2014-10-19T13:14:54Z</time>
      </trkpt>
      <trkpt lat="45.76707" lon="5.38982">
        <ele>276</ele>
        <time>2014-10-19T13:15:16Z</time>
      </trkpt>
      <trkpt lat="45.76713" lon="5.3906">
        <ele>275</ele>
        <time>2014-10-19T13:15:47Z</time>
      </trkpt>
      <trkpt lat="45.76722" lon="5.39134">
        <ele>276</ele>
        <time>2014-10-19T13:16:18Z</time>
      </trkpt>
      <trkpt lat="45.76725" lon="5.39208">
        <ele>275</ele>
        <time>2014-10-19T13:16:49Z</time>
      </trkpt>
      <trkpt lat="45.76737" lon="5.3928">
        <ele>275</ele>
        <time>2014-10-19T13:17:20Z</time>
      </trkpt>
      <trkpt lat="45.76763" lon="5.39342">
        <ele>274</ele>
        <time>2014-10-19T13:17:51Z</time>
      </trkpt>
      <trkpt lat="45.76792" lon="5.39406">
        <ele>278</ele>
        <time>2014-10-19T13:18:22Z</time>
      </trkpt>
      <trkpt lat="45.76818" lon="5.39467">
        <ele>280</ele>
        <time>2014-10-19T13:18:53Z</time>
      </trkpt>
      <trkpt lat="45.7685" lon="5.3953">
        <ele>280</ele>
        <time>2014-10-19T13:19:25Z</time>
      </trkpt>
      <trkpt lat="45.76878" lon="5.39597">
        <ele>280</ele>
        <time>2014-10-19T13:19:56Z</time>
      </trkpt>
      <trkpt lat="45.76882" lon="5.3961">
        <ele>281</ele>
        <time>2014-10-19T13:20:02Z</time>
      </trkpt>
      <trkpt lat="45.76887" lon="5.39611">
        <ele>281</ele>
        <time>2014-10-19T13:20:14Z</time>
      </trkpt>
      <trkpt lat="45.76904" lon="5.39659">
        <ele>281</ele>
        <time>2014-10-19T13:20:35Z</time>
      </trkpt>
      <trkpt lat="45.76907" lon="5.3966">
        <ele>281</ele>
        <time>2014-10-19T13:20:38Z</time>
      </trkpt>
      <trkpt lat="45.76957" lon="5.39653">
        <ele>281</ele>
        <time>2014-10-19T13:21:09Z</time>
      </trkpt>
      <trkpt lat="45.7701" lon="5.39644">
        <ele>281</ele>
        <time>2014-10-19T13:21:40Z</time>
      </trkpt>
      <trkpt lat="45.77048" lon="5.39641">
        <ele>281</ele>
        <time>2014-10-19T13:22:06Z</time>
      </trkpt>
      <trkpt lat="45.77052" lon="5.39648">
        <ele>281</ele>
        <time>2014-10-19T13:22:10Z</time>
      </trkpt>
      <trkpt lat="45.77074" lon="5.39716">
        <ele>282</ele>
        <time>2014-10-19T13:22:41Z</time>
      </trkpt>
      <trkpt lat="45.77092" lon="5.39777">
        <ele>283</ele>
        <time>2014-10-19T13:23:11Z</time>
      </trkpt>
      <trkpt lat="45.77111" lon="5.39843">
        <ele>283</ele>
        <time>2014-10-19T13:23:41Z</time>
      </trkpt>
      <trkpt lat="45.77131" lon="5.39905">
        <ele>282</ele>
        <time>2014-10-19T13:24:11Z</time>
      </trkpt>
      <trkpt lat="45.77148" lon="5.39969">
        <ele>283</ele>
        <time>2014-10-19T13:24:42Z</time>
      </trkpt>
      <trkpt lat="45.77165" lon="5.40031">
        <ele>284</ele>
        <time>2014-10-19T13:25:12Z</time>
      </trkpt>
      <trkpt lat="45.77163" lon="5.40107">
        <ele>284</ele>
        <time>2014-10-19T13:25:43Z</time>
      </trkpt>
      <trkpt lat="45.77169" lon="5.40138">
        <ele>284</ele>
        <time>2014-10-19T13:26:00Z</time>
      </trkpt>
      <trkpt lat="45.77166" lon="5.40139">
        <ele>285</ele>
        <time>2014-10-19T13:26:07Z</time>
      </trkpt>
      <trkpt lat="45.77137" lon="5.40182">
        <ele>287</ele>
        <time>2014-10-19T13:26:37Z</time>
      </trkpt>
      <trkpt lat="45.77112" lon="5.40239">
        <ele>284</ele>
        <time>2014-10-19T13:27:08Z</time>
      </trkpt>
      <trkpt lat="45.77102" lon="5.40305">
        <ele>281</ele>
        <time>2014-10-19T13:27:41Z</time>
      </trkpt>
      <trkpt lat="45.77089" lon="5.40375">
        <ele>276</ele>
        <time>2014-10-19T13:28:13Z</time>
      </trkpt>
      <trkpt lat="45.77073" lon="5.40465">
        <ele>278</ele>
        <time>2014-10-19T13:28:43Z</time>
      </trkpt>
      <trkpt lat="45.77079" lon="5.4053">
        <ele>276</ele>
        <time>2014-10-19T13:29:15Z</time>
      </trkpt>
      <trkpt lat="45.77095" lon="5.40551">
        <ele>275</ele>
        <time>2014-10-19T13:29:31Z</time>
      </trkpt>
      <trkpt lat="45.77131" lon="5.40588">
        <ele>272</ele>
        <time>2014-10-19T13:30:03Z</time>
      </trkpt>
      <trkpt lat="45.77176" lon="5.40604">
        <ele>269</ele>
        <time>2014-10-19T13:30:33Z</time>
      </trkpt>
      <trkpt lat="45.77222" lon="5.40619">
        <ele>266</ele>
        <time>2014-10-19T13:31:04Z</time>
      </trkpt>
      <trkpt lat="45.77274" lon="5.40635">
        <ele>264</ele>
        <time>2014-10-19T13:31:34Z</time>
      </trkpt>
      <trkpt lat="45.77322" lon="5.40661">
        <ele>264</ele>
        <time>2014-10-19T13:32:05Z</time>
      </trkpt>
      <trkpt lat="45.77369" lon="5.40684">
        <ele>267</ele>
        <time>2014-10-19T13:32:39Z</time>
      </trkpt>
      <trkpt lat="45.77423" lon="5.40705">
        <ele>271</ele>
        <time>2014-10-19T13:33:09Z</time>
      </trkpt>
      <trkpt lat="45.77433" lon="5.40707">
        <ele>272</ele>
        <time>2014-10-19T13:33:16Z</time>
      </trkpt>
      <trkpt lat="45.77434" lon="5.40711">
        <ele>273</ele>
        <time>2014-10-19T13:33:21Z</time>
      </trkpt>
      <trkpt lat="45.77438" lon="5.40722">
        <ele>273</ele>
        <time>2014-10-19T13:33:31Z</time>
      </trkpt>
      <trkpt lat="45.7743" lon="5.40738">
        <ele>274</ele>
        <time>2014-10-19T13:33:41Z</time>
      </trkpt>
      <trkpt lat="45.77401" lon="5.40782">
        <ele>274</ele>
        <time>2014-10-19T13:34:12Z</time>
      </trkpt>
      <trkpt lat="45.77365" lon="5.40839">
        <ele>273</ele>
        <time>2014-10-19T13:34:43Z</time>
      </trkpt>
      <trkpt lat="45.77325" lon="5.40905">
        <ele>273</ele>
        <time>2014-10-19T13:35:13Z</time>
      </trkpt>
      <trkpt lat="45.77288" lon="5.40949">
        <ele>275</ele>
        <time>2014-10-19T13:35:44Z</time>
      </trkpt>
      <trkpt lat="45.77259" lon="5.40982">
        <ele>275</ele>
        <time>2014-10-19T13:36:06Z</time>
      </trkpt>
      <trkpt lat="45.77257" lon="5.40985">
        <ele>276</ele>
        <time>2014-10-19T13:36:59Z</time>
      </trkpt>
      <trkpt lat="45.77262" lon="5.40997">
        <ele>278</ele>
        <time>2014-10-19T13:37:08Z</time>
      </trkpt>
      <trkpt lat="45.77266" lon="5.40997">
        <ele>278</ele>
        <time>2014-10-19T13:37:12Z</time>
      </trkpt>
      <trkpt lat="45.77306" lon="5.41036">
        <ele>278</ele>
        <time>2014-10-19T13:37:42Z</time>
      </trkpt>
      <trkpt lat="45.77344" lon="5.41082">
        <ele>274</ele>
        <time>2014-10-19T13:38:13Z</time>
      </trkpt>
      <trkpt lat="45.77374" lon="5.41124">
        <ele>268</ele>
        <time>2014-10-19T13:38:44Z</time>
      </trkpt>
      <trkpt lat="45.77396" lon="5.41154">
        <ele>265</ele>
        <time>2014-10-19T13:39:01Z</time>
      </trkpt>
      <trkpt lat="45.77395" lon="5.41161">
        <ele>265</ele>
        <time>2014-10-19T13:39:03Z</time>
      </trkpt>
      <trkpt lat="45.77397" lon="5.41165">
        <ele>265</ele>
        <time>2014-10-19T13:39:06Z</time>
      </trkpt>
      <trkpt lat="45.77443" lon="5.41165">
        <ele>263</ele>
        <time>2014-10-19T13:39:38Z</time>
      </trkpt>
      <trkpt lat="45.77494" lon="5.41183">
        <ele>262</ele>
        <time>2014-10-19T13:40:09Z</time>
      </trkpt>
      <trkpt lat="45.7754" lon="5.41207">
        <ele>257</ele>
        <time>2014-10-19T13:40:40Z</time>
      </trkpt>
      <trkpt lat="45.77595" lon="5.41247">
        <ele>255</ele>
        <time>2014-10-19T13:41:12Z</time>
      </trkpt>
      <trkpt lat="45.77638" lon="5.41297">
        <ele>254</ele>
        <time>2014-10-19T13:41:44Z</time>
      </trkpt>
      <trkpt lat="45.77678" lon="5.41339">
        <ele>254</ele>
        <time>2014-10-19T13:42:14Z</time>
      </trkpt>
      <trkpt lat="45.77679" lon="5.41344">
        <ele>253</ele>
        <time>2014-10-19T13:42:17Z</time>
      </trkpt>
      <trkpt lat="45.77664" lon="5.41415">
        <ele>254</ele>
        <time>2014-10-19T13:42:49Z</time>
      </trkpt>
      <trkpt lat="45.77669" lon="5.41444">
        <ele>254</ele>
        <time>2014-10-19T13:43:00Z</time>
      </trkpt>
      <trkpt lat="45.77705" lon="5.41486">
        <ele>254</ele>
        <time>2014-10-19T13:43:32Z</time>
      </trkpt>
      <trkpt lat="45.77738" lon="5.41533">
        <ele>255</ele>
        <time>2014-10-19T13:44:03Z</time>
      </trkpt>
      <trkpt lat="45.77763" lon="5.41591">
        <ele>254</ele>
        <time>2014-10-19T13:44:33Z</time>
      </trkpt>
      <trkpt lat="45.7779" lon="5.41648">
        <ele>252</ele>
        <time>2014-10-19T13:45:04Z</time>
      </trkpt>
      <trkpt lat="45.77814" lon="5.41714">
        <ele>252</ele>
        <time>2014-10-19T13:45:35Z</time>
      </trkpt>
      <trkpt lat="45.77814" lon="5.41779">
        <ele>251</ele>
        <time>2014-10-19T13:46:02Z</time>
      </trkpt>
      <trkpt lat="45.77813" lon="5.41847">
        <ele>250</ele>
        <time>2014-10-19T13:46:33Z</time>
      </trkpt>
      <trkpt lat="45.77814" lon="5.41917">
        <ele>249</ele>
        <time>2014-10-19T13:47:03Z</time>
      </trkpt>
      <trkpt lat="45.77817" lon="5.41976">
        <ele>248</ele>
        <time>2014-10-19T13:47:38Z</time>
      </trkpt>
      <trkpt lat="45.77799" lon="5.42045">
        <ele>247</ele>
        <time>2014-10-19T13:48:08Z</time>
      </trkpt>
      <trkpt lat="45.77798" lon="5.42052">
        <ele>247</ele>
        <time>2014-10-19T13:48:12Z</time>
      </trkpt>
      <trkpt lat="45.77765" lon="5.42102">
        <ele>246</ele>
        <time>2014-10-19T13:48:43Z</time>
      </trkpt>
      <trkpt lat="45.77728" lon="5.42154">
        <ele>244</ele>
        <time>2014-10-19T13:49:14Z</time>
      </trkpt>
      <trkpt lat="45.77705" lon="5.42186">
        <ele>243</ele>
        <time>2014-10-19T13:49:38Z</time>
      </trkpt>
      <trkpt lat="45.77707" lon="5.42183">
        <ele>242</ele>
        <time>2014-10-19T13:50:12Z</time>
      </trkpt>
      <trkpt lat="45.77717" lon="5.4218">
        <ele>241</ele>
        <time>2014-10-19T13:50:30Z</time>
      </trkpt>
      <trkpt lat="45.77768" lon="5.42165">
        <ele>239</ele>
        <time>2014-10-19T13:51:01Z</time>
      </trkpt>
      <trkpt lat="45.77813" lon="5.42147">
        <ele>241</ele>
        <time>2014-10-19T13:51:31Z</time>
      </trkpt>
      <trkpt lat="45.77863" lon="5.42137">
        <ele>241</ele>
        <time>2014-10-19T13:52:02Z</time>
      </trkpt>
      <trkpt lat="45.7791" lon="5.42122">
        <ele>242</ele>
        <time>2014-10-19T13:52:32Z</time>
      </trkpt>
      <trkpt lat="45.77951" lon="5.42124">
        <ele>241</ele>
        <time>2014-10-19T13:53:02Z</time>
      </trkpt>
      <trkpt lat="45.78007" lon="5.4215">
        <ele>239</ele>
        <time>2014-10-19T13:53:33Z</time>
      </trkpt>
      <trkpt lat="45.7805" lon="5.42162">
        <ele>240</ele>
        <time>2014-10-19T13:54:03Z</time>
      </trkpt>
      <trkpt lat="45.78101" lon="5.42153">
        <ele>240</ele>
        <time>2014-10-19T13:54:35Z</time>
      </trkpt>
      <trkpt lat="45.78146" lon="5.42144">
        <ele>238</ele>
        <time>2014-10-19T13:55:07Z</time>
      </trkpt>
      <trkpt lat="45.78193" lon="5.42126">
        <ele>242</ele>
        <time>2014-10-19T13:55:37Z</time>
      </trkpt>
      <trkpt lat="45.78234" lon="5.42092">
        <ele>244</ele>
        <time>2014-10-19T13:56:09Z</time>
      </trkpt>
      <trkpt lat="45.78283" lon="5.42057">
        <ele>247</ele>
        <time>2014-10-19T13:56:40Z</time>
      </trkpt>
      <trkpt lat="45.78322" lon="5.4203">
        <ele>245</ele>
        <time>2014-10-19T13:57:12Z</time>
      </trkpt>
      <trkpt lat="45.78359" lon="5.41983">
        <ele>241</ele>
        <time>2014-10-19T13:57:44Z</time>
      </trkpt>
      <trkpt lat="45.78381" lon="5.4193">
        <ele>237</ele>
        <time>2014-10-19T13:58:15Z</time>
      </trkpt>
      <trkpt lat="45.78427" lon="5.41897">
        <ele>235</ele>
        <time>2014-10-19T13:58:46Z</time>
      </trkpt>
      <trkpt lat="45.78472" lon="5.41875">
        <ele>235</ele>
        <time>2014-10-19T13:59:16Z</time>
      </trkpt>
      <trkpt lat="45.78523" lon="5.41866">
        <ele>234</ele>
        <time>2014-10-19T13:59:47Z</time>
      </trkpt>
      <trkpt lat="45.78573" lon="5.41857">
        <ele>234</ele>
        <time>2014-10-19T14:00:18Z</time>
      </trkpt>
      <trkpt lat="45.78606" lon="5.4185">
        <ele>234</ele>
        <time>2014-10-19T14:00:38Z</time>
      </trkpt>
      <trkpt lat="45.78607" lon="5.41843">
        <ele>234</ele>
        <time>2014-10-19T14:01:25Z</time>
      </trkpt>
      <trkpt lat="45.78643" lon="5.41832">
        <ele>235</ele>
        <time>2014-10-19T14:01:56Z</time>
      </trkpt>
      <trkpt lat="45.78689" lon="5.41793">
        <ele>236</ele>
        <time>2014-10-19T14:02:27Z</time>
      </trkpt>
      <trkpt lat="45.7873" lon="5.41753">
        <ele>236</ele>
        <time>2014-10-19T14:02:58Z</time>
      </trkpt>
      <trkpt lat="45.78774" lon="5.41728">
        <ele>237</ele>
        <time>2014-10-19T14:03:29Z</time>
      </trkpt>
      <trkpt lat="45.78825" lon="5.41724">
        <ele>238</ele>
        <time>2014-10-19T14:04:00Z</time>
      </trkpt>
      <trkpt lat="45.78872" lon="5.41718">
        <ele>238</ele>
        <time>2014-10-19T14:04:31Z</time>
      </trkpt>
      <trkpt lat="45.78926" lon="5.41712">
        <ele>238</ele>
        <time>2014-10-19T14:05:03Z</time>
      </trkpt>
      <trkpt lat="45.78966" lon="5.41687">
        <ele>240</ele>
        <time>2014-10-19T14:05:31Z</time>
      </trkpt>
      <trkpt lat="45.78969" lon="5.41678">
        <ele>240</ele>
        <time>2014-10-19T14:05:35Z</time>
      </trkpt>
      <trkpt lat="45.7897" lon="5.41674">
        <ele>240</ele>
        <time>2014-10-19T14:05:37Z</time>
      </trkpt>
      <trkpt lat="45.78942" lon="5.41612">
        <ele>239</ele>
        <time>2014-10-19T14:06:07Z</time>
      </trkpt>
      <trkpt lat="45.78923" lon="5.41578">
        <ele>239</ele>
        <time>2014-10-19T14:06:25Z</time>
      </trkpt>
      <trkpt lat="45.789" lon="5.4151">
        <ele>242</ele>
        <time>2014-10-19T14:06:56Z</time>
      </trkpt>
      <trkpt lat="45.78868" lon="5.4146">
        <ele>243</ele>
        <time>2014-10-19T14:07:26Z</time>
      </trkpt>
      <trkpt lat="45.78859" lon="5.41448">
        <ele>244</ele>
        <time>2014-10-19T14:07:32Z</time>
      </trkpt>
      <trkpt lat="45.78857" lon="5.41403">
        <ele>245</ele>
        <time>2014-10-19T14:07:52Z</time>
      </trkpt>
      <trkpt lat="45.78865" lon="5.4134">
        <ele>247</ele>
        <time>2014-10-19T14:08:22Z</time>
      </trkpt>
      <trkpt lat="45.78876" lon="5.41275">
        <ele>251</ele>
        <time>2014-10-19T14:08:53Z</time>
      </trkpt>
      <trkpt lat="45.78868" lon="5.41221">
        <ele>251</ele>
        <time>2014-10-19T14:09:24Z</time>
      </trkpt>
      <trkpt lat="45.78851" lon="5.4117">
        <ele>248</ele>
        <time>2014-10-19T14:09:54Z</time>
      </trkpt>
      <trkpt lat="45.78849" lon="5.41087">
        <ele>251</ele>
        <time>2014-10-19T14:10:24Z</time>
      </trkpt>
      <trkpt lat="45.78874" lon="5.4103">
        <ele>253</ele>
        <time>2014-10-19T14:10:55Z</time>
      </trkpt>
      <trkpt lat="45.78915" lon="5.40982">
        <ele>257</ele>
        <time>2014-10-19T14:11:27Z</time>
      </trkpt>
      <trkpt lat="45.78951" lon="5.40927">
        <ele>260</ele>
        <time>2014-10-19T14:11:58Z</time>
      </trkpt>
      <trkpt lat="45.78972" lon="5.40912">
        <ele>262</ele>
        <time>2014-10-19T14:12:14Z</time>
      </trkpt>
      <trkpt lat="45.78992" lon="5.40853">
        <ele>265</ele>
        <time>2014-10-19T14:12:44Z</time>
      </trkpt>
      <trkpt lat="45.7901" lon="5.40787">
        <ele>271</ele>
        <time>2014-10-19T14:13:14Z</time>
      </trkpt>
      <trkpt lat="45.79012" lon="5.40738">
        <ele>274</ele>
        <time>2014-10-19T14:13:35Z</time>
      </trkpt>
      <trkpt lat="45.7901" lon="5.40735">
        <ele>274</ele>
        <time>2014-10-19T14:13:37Z</time>
      </trkpt>
      <trkpt lat="45.78964" lon="5.40732">
        <ele>277</ele>
        <time>2014-10-19T14:14:06Z</time>
      </trkpt>
      <trkpt lat="45.78968" lon="5.40727">
        <ele>278</ele>
        <time>2014-10-19T14:14:10Z</time>
      </trkpt>
      <trkpt lat="45.78989" lon="5.40724">
        <ele>277</ele>
        <time>2014-10-19T14:14:21Z</time>
      </trkpt>
      <trkpt lat="45.7901" lon="5.40691">
        <ele>277</ele>
        <time>2014-10-19T14:14:41Z</time>
      </trkpt>
      <trkpt lat="45.79015" lon="5.40621">
        <ele>274</ele>
        <time>2014-10-19T14:15:12Z</time>
      </trkpt>
      <trkpt lat="45.79032" lon="5.40513">
        <ele>273</ele>
        <time>2014-10-19T14:15:42Z</time>
      </trkpt>
      <trkpt lat="45.79044" lon="5.40322">
        <ele>275</ele>
        <time>2014-10-19T14:16:12Z</time>
      </trkpt>
      <trkpt lat="45.79024" lon="5.40158">
        <ele>277</ele>
        <time>2014-10-19T14:16:43Z</time>
      </trkpt>
      <trkpt lat="45.78999" lon="5.40085">
        <ele>282</ele>
        <time>2014-10-19T14:17:14Z</time>
      </trkpt>
      <trkpt lat="45.78998" lon="5.40081">
        <ele>282</ele>
        <time>2014-10-19T14:17:16Z</time>
      </trkpt>
      <trkpt lat="45.78996" lon="5.4007">
        <ele>284</ele>
        <time>2014-10-19T14:17:22Z</time>
      </trkpt>
      <trkpt lat="45.7897" lon="5.40053">
        <ele>286</ele>
        <time>2014-10-19T14:17:38Z</time>
      </trkpt>
      <trkpt lat="45.78951" lon="5.40045">
        <ele>288</ele>
        <time>2014-10-19T14:17:50Z</time>
      </trkpt>
      <trkpt lat="45.78949" lon="5.4004">
        <ele>289</ele>
        <time>2014-10-19T14:17:53Z</time>
      </trkpt>
      <trkpt lat="45.78958" lon="5.40008">
        <ele>290</ele>
        <time>2014-10-19T14:18:06Z</time>
      </trkpt>
      <trkpt lat="45.78988" lon="5.39946">
        <ele>292</ele>
        <time>2014-10-19T14:18:37Z</time>
      </trkpt>
      <trkpt lat="45.79013" lon="5.39884">
        <ele>295</ele>
        <time>2014-10-19T14:19:07Z</time>
      </trkpt>
      <trkpt lat="45.7903" lon="5.39845">
        <ele>296</ele>
        <time>2014-10-19T14:19:27Z</time>
      </trkpt>
      <trkpt lat="45.79035" lon="5.39847">
        <ele>296</ele>
        <time>2014-10-19T14:20:22Z</time>
      </trkpt>
      <trkpt lat="45.79093" lon="5.39833">
        <ele>297</ele>
        <time>2014-10-19T14:20:52Z</time>
      </trkpt>
      <trkpt lat="45.79144" lon="5.39807">
        <ele>297</ele>
        <time>2014-10-19T14:21:22Z</time>
      </trkpt>
      <trkpt lat="45.79186" lon="5.39767">
        <ele>297</ele>
        <time>2014-10-19T14:21:52Z</time>
      </trkpt>
      <trkpt lat="45.79191" lon="5.39762">
        <ele>297</ele>
        <time>2014-10-19T14:21:56Z</time>
      </trkpt>
      <trkpt lat="45.79237" lon="5.39742">
        <ele>297</ele>
        <time>2014-10-19T14:22:26Z</time>
      </trkpt>
      <trkpt lat="45.79248" lon="5.39742">
        <ele>296</ele>
        <time>2014-10-19T14:22:34Z</time>
      </trkpt>
      <trkpt lat="45.79276" lon="5.39727">
        <ele>297</ele>
        <time>2014-10-19T14:23:04Z</time>
      </trkpt>
      <trkpt lat="45.79318" lon="5.3968">
        <ele>298</ele>
        <time>2014-10-19T14:23:35Z</time>
      </trkpt>
      <trkpt lat="45.79353" lon="5.39633">
        <ele>297</ele>
        <time>2014-10-19T14:24:05Z</time>
      </trkpt>
      <trkpt lat="45.79393" lon="5.3959">
        <ele>295</ele>
        <time>2014-10-19T14:24:36Z</time>
      </trkpt>
      <trkpt lat="45.79416" lon="5.39537">
        <ele>293</ele>
        <time>2014-10-19T14:25:02Z</time>
      </trkpt>
      <trkpt lat="45.79437" lon="5.39477">
        <ele>293</ele>
        <time>2014-10-19T14:25:32Z</time>
      </trkpt>
      <trkpt lat="45.79483" lon="5.39426">
        <ele>291</ele>
        <time>2014-10-19T14:26:02Z</time>
      </trkpt>
      <trkpt lat="45.79527" lon="5.39394">
        <ele>290</ele>
        <time>2014-10-19T14:26:32Z</time>
      </trkpt>
      <trkpt lat="45.79572" lon="5.39356">
        <ele>290</ele>
        <time>2014-10-19T14:27:03Z</time>
      </trkpt>
      <trkpt lat="45.79615" lon="5.39307">
        <ele>291</ele>
        <time>2014-10-19T14:27:33Z</time>
      </trkpt>
      <trkpt lat="45.79652" lon="5.39261">
        <ele>293</ele>
        <time>2014-10-19T14:28:03Z</time>
      </trkpt>
      <trkpt lat="45.79683" lon="5.39205">
        <ele>294</ele>
        <time>2014-10-19T14:28:33Z</time>
      </trkpt>
      <trkpt lat="45.79706" lon="5.39139">
        <ele>295</ele>
        <time>2014-10-19T14:29:03Z</time>
      </trkpt>
      <trkpt lat="45.79723" lon="5.39072">
        <ele>295</ele>
        <time>2014-10-19T14:29:33Z</time>
      </trkpt>
      <trkpt lat="45.79747" lon="5.39005">
        <ele>296</ele>
        <time>2014-10-19T14:30:03Z</time>
      </trkpt>
      <trkpt lat="45.79762" lon="5.38938">
        <ele>297</ele>
        <time>2014-10-19T14:30:33Z</time>
      </trkpt>
      <trkpt lat="45.79781" lon="5.38869">
        <ele>297</ele>
        <time>2014-10-19T14:31:04Z</time>
      </trkpt>
      <trkpt lat="45.79799" lon="5.38806">
        <ele>298</ele>
        <time>2014-10-19T14:31:36Z</time>
      </trkpt>
      <trkpt lat="45.79806" lon="5.38784">
        <ele>298</ele>
        <time>2014-10-19T14:31:47Z</time>
      </trkpt>
      <trkpt lat="45.79821" lon="5.38757">
        <ele>297</ele>
        <time>2014-10-19T14:32:03Z</time>
      </trkpt>
      <trkpt lat="45.79867" lon="5.38717">
        <ele>295</ele>
        <time>2014-10-19T14:32:33Z</time>
      </trkpt>
      <trkpt lat="45.79896" lon="5.38656">
        <ele>294</ele>
        <time>2014-10-19T14:33:03Z</time>
      </trkpt>
      <trkpt lat="45.79928" lon="5.38597">
        <ele>292</ele>
        <time>2014-10-19T14:33:34Z</time>
      </trkpt>
      <trkpt lat="45.79969" lon="5.38573">
        <ele>291</ele>
        <time>2014-10-19T14:34:04Z</time>
      </trkpt>
      <trkpt lat="45.80016" lon="5.38577">
        <ele>292</ele>
        <time>2014-10-19T14:34:35Z</time>
      </trkpt>
      <trkpt lat="45.80068" lon="5.38548">
        <ele>293</ele>
        <time>2014-10-19T14:35:06Z</time>
      </trkpt>
      <trkpt lat="45.80104" lon="5.38498">
        <ele>294</ele>
        <time>2014-10-19T14:35:36Z</time>
      </trkpt>
      <trkpt lat="45.8014" lon="5.38442">
        <ele>292</ele>
        <time>2014-10-19T14:36:07Z</time>
      </trkpt>
      <trkpt lat="45.80177" lon="5.3839">
        <ele>292</ele>
        <time>2014-10-19T14:36:38Z</time>
      </trkpt>
      <trkpt lat="45.80216" lon="5.38338">
        <ele>292</ele>
        <time>2014-10-19T14:37:09Z</time>
      </trkpt>
      <trkpt lat="45.80257" lon="5.38295">
        <ele>292</ele>
        <time>2014-10-19T14:37:39Z</time>
      </trkpt>
      <trkpt lat="45.80298" lon="5.38259">
        <ele>295</ele>
        <time>2014-10-19T14:38:09Z</time>
      </trkpt>
      <trkpt lat="45.80339" lon="5.38213">
        <ele>296</ele>
        <time>2014-10-19T14:38:40Z</time>
      </trkpt>
      <trkpt lat="45.80361" lon="5.38183">
        <ele>297</ele>
        <time>2014-10-19T14:38:59Z</time>
      </trkpt>
      <trkpt lat="45.80365" lon="5.38175">
        <ele>297</ele>
        <time>2014-10-19T14:39:04Z</time>
      </trkpt>
      <trkpt lat="45.80367" lon="5.38164">
        <ele>296</ele>
        <time>2014-10-19T14:39:08Z</time>
      </trkpt>
      <trkpt lat="45.80369" lon="5.38161">
        <ele>296</ele>
        <time>2014-10-19T14:39:16Z</time>
      </trkpt>
      <trkpt lat="45.80427" lon="5.37975">
        <ele>288</ele>
        <time>2014-10-19T14:39:46Z</time>
      </trkpt>
      <trkpt lat="45.80588" lon="5.37757">
        <ele>295</ele>
        <time>2014-10-19T14:40:16Z</time>
      </trkpt>
      <trkpt lat="45.80607" lon="5.37732">
        <ele>297</ele>
        <time>2014-10-19T14:40:24Z</time>
      </trkpt>
      <trkpt lat="45.80628" lon="5.3769">
        <ele>297</ele>
        <time>2014-10-19T14:40:54Z</time>
      </trkpt>
      <trkpt lat="45.80659" lon="5.37635">
        <ele>295</ele>
        <time>2014-10-19T14:41:24Z</time>
      </trkpt>
      <trkpt lat="45.80689" lon="5.37585">
        <ele>293</ele>
        <time>2014-10-19T14:41:55Z</time>
      </trkpt>
      <trkpt lat="45.8072" lon="5.37531">
        <ele>290</ele>
        <time>2014-10-19T14:42:46Z</time>
      </trkpt>
      <trkpt lat="45.80752" lon="5.37467">
        <ele>290</ele>
        <time>2014-10-19T14:43:16Z</time>
      </trkpt>
      <trkpt lat="45.80767" lon="5.37392">
        <ele>292</ele>
        <time>2014-10-19T14:43:46Z</time>
      </trkpt>
      <trkpt lat="45.80779" lon="5.37328">
        <ele>291</ele>
        <time>2014-10-19T14:44:14Z</time>
      </trkpt>
      <trkpt lat="45.80781" lon="5.37325">
        <ele>291</ele>
        <time>2014-10-19T14:44:16Z</time>
      </trkpt>
      <trkpt lat="45.80823" lon="5.37339">
        <ele>289</ele>
        <time>2014-10-19T14:44:44Z</time>
      </trkpt>
      <trkpt lat="45.80826" lon="5.37339">
        <ele>283</ele>
        <time>2014-10-19T14:45:30Z</time>
      </trkpt>
      <trkpt lat="45.80871" lon="5.37383">
        <ele>279</ele>
        <time>2014-10-19T14:46:01Z</time>
      </trkpt>
      <trkpt lat="45.80888" lon="5.37406">
        <ele>278</ele>
        <time>2014-10-19T14:46:17Z</time>
      </trkpt>
      <trkpt lat="45.80903" lon="5.37399">
        <ele>278</ele>
        <time>2014-10-19T14:46:27Z</time>
      </trkpt>
      <trkpt lat="45.80907" lon="5.37384">
        <ele>277</ele>
        <time>2014-10-19T14:46:33Z</time>
      </trkpt>
      <trkpt lat="45.80906" lon="5.37378">
        <ele>277</ele>
        <time>2014-10-19T14:46:35Z</time>
      </trkpt>
      <trkpt lat="45.80883" lon="5.37335">
        <ele>276</ele>
        <time>2014-10-19T14:46:57Z</time>
      </trkpt>
      <trkpt lat="45.80887" lon="5.37334">
        <ele>275</ele>
        <time>2014-10-19T14:47:05Z</time>
      </trkpt>
      <trkpt lat="45.80923" lon="5.37387">
        <ele>271</ele>
        <time>2014-10-19T14:47:36Z</time>
      </trkpt>
      <trkpt lat="45.80964" lon="5.37419">
        <ele>267</ele>
        <time>2014-10-19T14:48:06Z</time>
      </trkpt>
      <trkpt lat="45.81009" lon="5.37463">
        <ele>266</ele>
        <time>2014-10-19T14:48:36Z</time>
      </trkpt>
      <trkpt lat="45.81018" lon="5.37531">
        <ele>265</ele>
        <time>2014-10-19T14:49:07Z</time>
      </trkpt>
      <trkpt lat="45.81027" lon="5.376">
        <ele>266</ele>
        <time>2014-10-19T14:49:37Z</time>
      </trkpt>
      <trkpt lat="45.81041" lon="5.37673">
        <ele>267</ele>
        <time>2014-10-19T14:50:08Z</time>
      </trkpt>
      <trkpt lat="45.81043" lon="5.3769">
        <ele>267</ele>
        <time>2014-10-19T14:50:16Z</time>
      </trkpt>
      <trkpt lat="45.81046" lon="5.37692">
        <ele>267</ele>
        <time>2014-10-19T14:50:19Z</time>
      </trkpt>
      <trkpt lat="45.81069" lon="5.37685">
        <ele>265</ele>
        <time>2014-10-19T14:50:51Z</time>
      </trkpt>
      <trkpt lat="45.81104" lon="5.37709">
        <ele>263</ele>
        <time>2014-10-19T14:51:22Z</time>
      </trkpt>
      <trkpt lat="45.81113" lon="5.37715">
        <ele>262</ele>
        <time>2014-10-19T14:51:32Z</time>
      </trkpt>
      <trkpt lat="45.81136" lon="5.37706">
        <ele>259</ele>
        <time>2014-10-19T14:51:50Z</time>
      </trkpt>
      <trkpt lat="45.81145" lon="5.37688">
        <ele>255</ele>
        <time>2014-10-19T14:52:06Z</time>
      </trkpt>
      <trkpt lat="45.81162" lon="5.37685">
        <ele>256</ele>
        <time>2014-10-19T14:52:20Z</time>
      </trkpt>
      <trkpt lat="45.81159" lon="5.37686">
        <ele>257</ele>
        <time>2014-10-19T14:52:33Z</time>
      </trkpt>
      <trkpt lat="45.81135" lon="5.37712">
        <ele>256</ele>
        <time>2014-10-19T14:52:54Z</time>
      </trkpt>
      <trkpt lat="45.81128" lon="5.37717">
        <ele>255</ele>
        <time>2014-10-19T14:53:13Z</time>
      </trkpt>
      <trkpt lat="45.81118" lon="5.37721">
        <ele>255</ele>
        <time>2014-10-19T14:53:19Z</time>
      </trkpt>
      <trkpt lat="45.81115" lon="5.37719">
        <ele>255</ele>
        <time>2014-10-19T14:53:21Z</time>
      </trkpt>
      <trkpt lat="45.81082" lon="5.37692">
        <ele>259</ele>
        <time>2014-10-19T14:53:47Z</time>
      </trkpt>
      <trkpt lat="45.8107" lon="5.37694">
        <ele>260</ele>
        <time>2014-10-19T14:53:58Z</time>
      </trkpt>
      <trkpt lat="45.81066" lon="5.37697">
        <ele>261</ele>
        <time>2014-10-19T14:54:01Z</time>
      </trkpt>
      <trkpt lat="45.81062" lon="5.37697">
        <ele>261</ele>
        <time>2014-10-19T14:54:02Z</time>
      </trkpt>
      <trkpt lat="45.81038" lon="5.37689">
        <ele>262</ele>
        <time>2014-10-19T14:54:17Z</time>
      </trkpt>
      <trkpt lat="45.81038" lon="5.37686">
        <ele>263</ele>
        <time>2014-10-19T14:55:00Z</time>
      </trkpt>
      <trkpt lat="45.8104" lon="5.37682">
        <ele>263</ele>
        <time>2014-10-19T14:55:42Z</time>
      </trkpt>
      <trkpt lat="45.81035" lon="5.37617">
        <ele>265</ele>
        <time>2014-10-19T14:56:13Z</time>
      </trkpt>
      <trkpt lat="45.81022" lon="5.37546">
        <ele>266</ele>
        <time>2014-10-19T14:56:43Z</time>
      </trkpt>
      <trkpt lat="45.81017" lon="5.37469">
        <ele>267</ele>
        <time>2014-10-19T14:57:14Z</time>
      </trkpt>
      <trkpt lat="45.81016" lon="5.37465">
        <ele>267</ele>
        <time>2014-10-19T14:57:17Z</time>
      </trkpt>
      <trkpt lat="45.80979" lon="5.37425">
        <ele>269</ele>
        <time>2014-10-19T14:57:48Z</time>
      </trkpt>
      <trkpt lat="45.80931" lon="5.37388">
        <ele>271</ele>
        <time>2014-10-19T14:58:18Z</time>
      </trkpt>
      <trkpt lat="45.80897" lon="5.37346">
        <ele>269</ele>
        <time>2014-10-19T14:58:48Z</time>
      </trkpt>
      <trkpt lat="45.80864" lon="5.37299">
        <ele>268</ele>
        <time>2014-10-19T14:59:18Z</time>
      </trkpt>
      <trkpt lat="45.80854" lon="5.37235">
        <ele>267</ele>
        <time>2014-10-19T14:59:46Z</time>
      </trkpt>
      <trkpt lat="45.80858" lon="5.37238">
        <ele>263</ele>
        <time>2014-10-19T15:00:07Z</time>
      </trkpt>
      <trkpt lat="45.80903" lon="5.37209">
        <ele>261</ele>
        <time>2014-10-19T15:00:38Z</time>
      </trkpt>
      <trkpt lat="45.80945" lon="5.37195">
        <ele>256</ele>
        <time>2014-10-19T15:01:10Z</time>
      </trkpt>
      <trkpt lat="45.80947" lon="5.37197">
        <ele>255</ele>
        <time>2014-10-19T15:01:12Z</time>
      </trkpt>
      <trkpt lat="45.80976" lon="5.37193">
        <ele>252</ele>
        <time>2014-10-19T15:01:29Z</time>
      </trkpt>
      <trkpt lat="45.80977" lon="5.37189">
        <ele>252</ele>
        <time>2014-10-19T15:01:32Z</time>
      </trkpt>
      <trkpt lat="45.81" lon="5.37159">
        <ele>250</ele>
        <time>2014-10-19T15:01:49Z</time>
      </trkpt>
      <trkpt lat="45.80997" lon="5.37081">
        <ele>248</ele>
        <time>2014-10-19T15:02:19Z</time>
      </trkpt>
      <trkpt lat="45.80993" lon="5.37011">
        <ele>248</ele>
        <time>2014-10-19T15:02:50Z</time>
      </trkpt>
      <trkpt lat="45.81015" lon="5.36938">
        <ele>247</ele>
        <time>2014-10-19T15:03:21Z</time>
      </trkpt>
      <trkpt lat="45.8104" lon="5.36864">
        <ele>248</ele>
        <time>2014-10-19T15:03:52Z</time>
      </trkpt>
      <trkpt lat="45.81061" lon="5.36801">
        <ele>248</ele>
        <time>2014-10-19T15:04:22Z</time>
      </trkpt>
      <trkpt lat="45.81081" lon="5.36731">
        <ele>249</ele>
        <time>2014-10-19T15:04:52Z</time>
      </trkpt>
      <trkpt lat="45.81099" lon="5.36687">
        <ele>248</ele>
        <time>2014-10-19T15:05:13Z</time>
      </trkpt>
      <trkpt lat="45.81148" lon="5.36689">
        <ele>248</ele>
        <time>2014-10-19T15:05:44Z</time>
      </trkpt>
      <trkpt lat="45.81202" lon="5.36675">
        <ele>246</ele>
        <time>2014-10-19T15:06:15Z</time>
      </trkpt>
      <trkpt lat="45.81254" lon="5.36649">
        <ele>245</ele>
        <time>2014-10-19T15:06:46Z</time>
      </trkpt>
      <trkpt lat="45.81293" lon="5.36592">
        <ele>246</ele>
        <time>2014-10-19T15:07:18Z</time>
      </trkpt>
      <trkpt lat="45.81319" lon="5.36532">
        <ele>247</ele>
        <time>2014-10-19T15:07:48Z</time>
      </trkpt>
      <trkpt lat="45.81346" lon="5.36475">
        <ele>248</ele>
        <time>2014-10-19T15:08:18Z</time>
      </trkpt>
      <trkpt lat="45.81368" lon="5.36413">
        <ele>250</ele>
        <time>2014-10-19T15:08:48Z</time>
      </trkpt>
      <trkpt lat="45.81401" lon="5.36351">
        <ele>249</ele>
        <time>2014-10-19T15:09:19Z</time>
      </trkpt>
      <trkpt lat="45.81426" lon="5.36299">
        <ele>249</ele>
        <time>2014-10-19T15:09:49Z</time>
      </trkpt>
      <trkpt lat="45.81443" lon="5.36277">
        <ele>250</ele>
        <time>2014-10-19T15:10:01Z</time>
      </trkpt>
      <trkpt lat="45.81477" lon="5.36228">
        <ele>250</ele>
        <time>2014-10-19T15:10:31Z</time>
      </trkpt>
      <trkpt lat="45.81559" lon="5.36127">
        <ele>243</ele>
        <time>2014-10-19T15:10:59Z</time>
      </trkpt>
      <trkpt lat="45.81702" lon="5.36106">
        <ele>261</ele>
        <time>2014-10-19T15:11:29Z</time>
      </trkpt>
      <trkpt lat="45.81837" lon="5.36008">
        <ele>259</ele>
        <time>2014-10-19T15:11:59Z</time>
      </trkpt>
      <trkpt lat="45.81943" lon="5.35973">
        <ele>263</ele>
        <time>2014-10-19T15:12:29Z</time>
      </trkpt>
      <trkpt lat="45.81995" lon="5.35978">
        <ele>263</ele>
        <time>2014-10-19T15:13:00Z</time>
      </trkpt>
      <trkpt lat="45.82011" lon="5.35963">
        <ele>263</ele>
        <time>2014-10-19T15:13:11Z</time>
      </trkpt>
      <trkpt lat="45.82061" lon="5.35929">
        <ele>263</ele>
        <time>2014-10-19T15:13:41Z</time>
      </trkpt>
      <trkpt lat="45.82106" lon="5.35888">
        <ele>264</ele>
        <time>2014-10-19T15:14:11Z</time>
      </trkpt>
      <trkpt lat="45.82107" lon="5.35884">
        <ele>264</ele>
        <time>2014-10-19T15:14:24Z</time>
      </trkpt>
      <trkpt lat="45.82065" lon="5.35846">
        <ele>264</ele>
        <time>2014-10-19T15:14:54Z</time>
      </trkpt>
      <trkpt lat="45.8202" lon="5.35808">
        <ele>264</ele>
        <time>2014-10-19T15:15:24Z</time>
      </trkpt>
      <trkpt lat="45.81976" lon="5.35772">
        <ele>265</ele>
        <time>2014-10-19T15:15:54Z</time>
      </trkpt>
      <trkpt lat="45.81933" lon="5.3574">
        <ele>265</ele>
        <time>2014-10-19T15:16:25Z</time>
      </trkpt>
      <trkpt lat="45.8189" lon="5.35703">
        <ele>261</ele>
        <time>2014-10-19T15:16:55Z</time>
      </trkpt>
      <trkpt lat="45.81857" lon="5.35638">
        <ele>258</ele>
        <time>2014-10-19T15:17:26Z</time>
      </trkpt>
      <trkpt lat="45.8184" lon="5.35572">
        <ele>257</ele>
        <time>2014-10-19T15:18:05Z</time>
      </trkpt>
      <trkpt lat="45.81823" lon="5.35542">
        <ele>256</ele>
        <time>2014-10-19T15:18:27Z</time>
      </trkpt>
      <trkpt lat="45.81821" lon="5.35544">
        <ele>256</ele>
        <time>2014-10-19T15:18:40Z</time>
      </trkpt>
      <trkpt lat="45.81817" lon="5.3554">
        <ele>255</ele>
        <time>2014-10-19T15:18:51Z</time>
      </trkpt>
      <trkpt lat="45.81818" lon="5.35533">
        <ele>255</ele>
        <time>2014-10-19T15:18:53Z</time>
      </trkpt>
      <trkpt lat="45.81813" lon="5.35539">
        <ele>254</ele>
        <time>2014-10-19T15:19:46Z</time>
      </trkpt>
      <trkpt lat="45.81773" lon="5.35487">
        <ele>253</ele>
        <time>2014-10-19T15:20:18Z</time>
      </trkpt>
      <trkpt lat="45.81743" lon="5.35423">
        <ele>254</ele>
        <time>2014-10-19T15:20:48Z</time>
      </trkpt>
      <trkpt lat="45.8173" lon="5.35395">
        <ele>255</ele>
        <time>2014-10-19T15:21:03Z</time>
      </trkpt>
      <trkpt lat="45.81724" lon="5.35393">
        <ele>255</ele>
        <time>2014-10-19T15:21:12Z</time>
      </trkpt>
      <trkpt lat="45.81723" lon="5.35386">
        <ele>254</ele>
        <time>2014-10-19T15:21:20Z</time>
      </trkpt>
      <trkpt lat="45.81755" lon="5.35317">
        <ele>255</ele>
        <time>2014-10-19T15:21:50Z</time>
      </trkpt>
      <trkpt lat="45.8178" lon="5.35244">
        <ele>254</ele>
        <time>2014-10-19T15:22:21Z</time>
      </trkpt>
      <trkpt lat="45.81789" lon="5.35181">
        <ele>254</ele>
        <time>2014-10-19T15:22:46Z</time>
      </trkpt>
      <trkpt lat="45.81786" lon="5.35179">
        <ele>254</ele>
        <time>2014-10-19T15:22:49Z</time>
      </trkpt>
      <trkpt lat="45.81781" lon="5.35178">
        <ele>254</ele>
        <time>2014-10-19T15:22:53Z</time>
      </trkpt>
      <trkpt lat="45.8178" lon="5.35173">
        <ele>254</ele>
        <time>2014-10-19T15:22:55Z</time>
      </trkpt>
      <trkpt lat="45.81769" lon="5.35098">
        <ele>256</ele>
        <time>2014-10-19T15:23:25Z</time>
      </trkpt>
      <trkpt lat="45.81748" lon="5.35047">
        <ele>257</ele>
        <time>2014-10-19T15:23:51Z</time>
      </trkpt>
      <trkpt lat="45.8174" lon="5.35039">
        <ele>257</ele>
        <time>2014-10-19T15:23:56Z</time>
      </trkpt>
      <trkpt lat="45.81732" lon="5.35017">
        <ele>258</ele>
        <time>2014-10-19T15:24:06Z</time>
      </trkpt>
      <trkpt lat="45.81729" lon="5.35017">
        <ele>258</ele>
        <time>2014-10-19T15:24:08Z</time>
      </trkpt>
      <trkpt lat="45.81728" lon="5.35019">
        <ele>258</ele>
        <time>2014-10-19T15:24:09Z</time>
      </trkpt>
      <trkpt lat="45.81725" lon="5.35029">
        <ele>258</ele>
        <time>2014-10-19T15:24:21Z</time>
      </trkpt>
      <trkpt lat="45.81726" lon="5.35029">
        <ele>258</ele>
        <time>2014-10-19T15:24:33Z</time>
      </trkpt>
      <trkpt lat="45.81732" lon="5.35032">
        <ele>258</ele>
        <time>2014-10-19T15:24:38Z</time>
      </trkpt>
      <trkpt lat="45.81763" lon="5.35062">
        <ele>260</ele>
        <time>2014-10-19T15:25:01Z</time>
      </trkpt>
      <trkpt lat="45.81769" lon="5.35056">
        <ele>260</ele>
        <time>2014-10-19T15:25:17Z</time>
      </trkpt>
      <trkpt lat="45.8177" lon="5.35051">
        <ele>261</ele>
        <time>2014-10-19T15:25:19Z</time>
      </trkpt>
      <trkpt lat="45.81768" lon="5.35039">
        <ele>261</ele>
        <time>2014-10-19T15:25:23Z</time>
      </trkpt>
      <trkpt lat="45.81751" lon="5.34971">
        <ele>261</ele>
        <time>2014-10-19T15:25:53Z</time>
      </trkpt>
      <trkpt lat="45.81735" lon="5.34897">
        <ele>262</ele>
        <time>2014-10-19T15:26:24Z</time>
      </trkpt>
      <trkpt lat="45.81718" lon="5.34818">
        <ele>263</ele>
        <time>2014-10-19T15:26:55Z</time>
      </trkpt>
      <trkpt lat="45.81713" lon="5.34745">
        <ele>263</ele>
        <time>2014-10-19T15:27:25Z</time>
      </trkpt>
      <trkpt lat="45.8171" lon="5.3467">
        <ele>262</ele>
        <time>2014-10-19T15:27:55Z</time>
      </trkpt>
      <trkpt lat="45.8171" lon="5.34589">
        <ele>262</ele>
        <time>2014-10-19T15:28:25Z</time>
      </trkpt>
      <trkpt lat="45.81711" lon="5.34515">
        <ele>263</ele>
        <time>2014-10-19T15:28:55Z</time>
      </trkpt>
      <trkpt lat="45.81735" lon="5.34455">
        <ele>259</ele>
        <time>2014-10-19T15:29:26Z</time>
      </trkpt>
      <trkpt lat="45.81789" lon="5.34436">
        <ele>260</ele>
        <time>2014-10-19T15:29:58Z</time>
      </trkpt>
      <trkpt lat="45.81839" lon="5.34428">
        <ele>258</ele>
        <time>2014-10-19T15:30:27Z</time>
      </trkpt>
      <trkpt lat="45.81839" lon="5.3442">
        <ele>257</ele>
        <time>2014-10-19T15:30:34Z</time>
      </trkpt>
      <trkpt lat="45.81833" lon="5.34409">
        <ele>256</ele>
        <time>2014-10-19T15:30:41Z</time>
      </trkpt>
      <trkpt lat="45.81832" lon="5.34396">
        <ele>256</ele>
        <time>2014-10-19T15:30:47Z</time>
      </trkpt>
      <trkpt lat="45.81828" lon="5.34329">
        <ele>259</ele>
        <time>2014-10-19T15:31:19Z</time>
      </trkpt>
      <trkpt lat="45.81816" lon="5.34272">
        <ele>259</ele>
        <time>2014-10-19T15:31:50Z</time>
      </trkpt>
      <trkpt lat="45.81806" lon="5.34215">
        <ele>259</ele>
        <time>2014-10-19T15:32:23Z</time>
      </trkpt>
      <trkpt lat="45.81804" lon="5.34174">
        <ele>263</ele>
        <time>2014-10-19T15:32:44Z</time>
      </trkpt>
      <trkpt lat="45.818" lon="5.34168">
        <ele>265</ele>
        <time>2014-10-19T15:32:52Z</time>
      </trkpt>
      <trkpt lat="45.8173" lon="5.34141">
        <ele>269</ele>
        <time>2014-10-19T15:33:22Z</time>
      </trkpt>
      <trkpt lat="45.817" lon="5.34133">
        <ele>271</ele>
        <time>2014-10-19T15:33:45Z</time>
      </trkpt>
      <trkpt lat="45.81696" lon="5.34136">
        <ele>271</ele>
        <time>2014-10-19T15:33:51Z</time>
      </trkpt>
      <trkpt lat="45.81692" lon="5.34133">
        <ele>272</ele>
        <time>2014-10-19T15:33:53Z</time>
      </trkpt>
      <trkpt lat="45.81688" lon="5.34134">
        <ele>272</ele>
        <time>2014-10-19T15:33:57Z</time>
      </trkpt>
      <trkpt lat="45.81671" lon="5.34131">
        <ele>271</ele>
        <time>2014-10-19T15:34:09Z</time>
      </trkpt>
      <trkpt lat="45.81666" lon="5.34128">
        <ele>270</ele>
        <time>2014-10-19T15:34:13Z</time>
      </trkpt>
      <trkpt lat="45.81607" lon="5.34094">
        <ele>273</ele>
        <time>2014-10-19T15:34:44Z</time>
      </trkpt>
      <trkpt lat="45.81576" lon="5.34071">
        <ele>277</ele>
        <time>2014-10-19T15:34:59Z</time>
      </trkpt>
      <trkpt lat="45.81572" lon="5.34074">
        <ele>277</ele>
        <time>2014-10-19T15:35:03Z</time>
      </trkpt>
      <trkpt lat="45.81557" lon="5.34083">
        <ele>281</ele>
        <time>2014-10-19T15:35:17Z</time>
      </trkpt>
      <trkpt lat="45.81514" lon="5.34077">
        <ele>285</ele>
        <time>2014-10-19T15:35:45Z</time>
      </trkpt>
      <trkpt lat="45.81512" lon="5.34082">
        <ele>284</ele>
        <time>2014-10-19T15:35:49Z</time>
      </trkpt>
      <trkpt lat="45.81507" lon="5.34081">
        <ele>285</ele>
        <time>2014-10-19T15:35:53Z</time>
      </trkpt>
      <trkpt lat="45.81502" lon="5.34081">
        <ele>285</ele>
        <time>2014-10-19T15:35:56Z</time>
      </trkpt>
      <trkpt lat="45.81461" lon="5.34115">
        <ele>287</ele>
        <time>2014-10-19T15:36:26Z</time>
      </trkpt>
      <trkpt lat="45.81435" lon="5.34146">
        <ele>288</ele>
        <time>2014-10-19T15:36:51Z</time>
      </trkpt>
      <trkpt lat="45.81431" lon="5.34148">
        <ele>288</ele>
        <time>2014-10-19T15:36:53Z</time>
      </trkpt>
      <trkpt lat="45.81419" lon="5.3414">
        <ele>288</ele>
        <time>2014-10-19T15:37:03Z</time>
      </trkpt>
      <trkpt lat="45.81416" lon="5.34142">
        <ele>288</ele>
        <time>2014-10-19T15:37:06Z</time>
      </trkpt>
      <trkpt lat="45.81383" lon="5.34184">
        <ele>286</ele>
        <time>2014-10-19T15:37:36Z</time>
      </trkpt>
      <trkpt lat="45.81368" lon="5.34204">
        <ele>286</ele>
        <time>2014-10-19T15:38:11Z</time>
      </trkpt>
      <trkpt lat="45.81371" lon="5.3423">
        <ele>286</ele>
        <time>2014-10-19T15:38:24Z</time>
      </trkpt>
      <trkpt lat="45.81368" lon="5.34216">
        <ele>285</ele>
        <time>2014-10-19T15:38:49Z</time>
      </trkpt>
      <trkpt lat="45.81369" lon="5.342">
        <ele>285</ele>
        <time>2014-10-19T15:38:58Z</time>
      </trkpt>
      <trkpt lat="45.81363" lon="5.34185">
        <ele>284</ele>
        <time>2014-10-19T15:39:07Z</time>
      </trkpt>
      <trkpt lat="45.81354" lon="5.34173">
        <ele>283</ele>
        <time>2014-10-19T15:39:20Z</time>
      </trkpt>
      <trkpt lat="45.81351" lon="5.34174">
        <ele>283</ele>
        <time>2014-10-19T15:39:28Z</time>
      </trkpt>
      <trkpt lat="45.81345" lon="5.34171">
        <ele>283</ele>
        <time>2014-10-19T15:39:32Z</time>
      </trkpt>
      <trkpt lat="45.8134" lon="5.34167">
        <ele>283</ele>
        <time>2014-10-19T15:39:35Z</time>
      </trkpt>
      <trkpt lat="45.81327" lon="5.34163">
        <ele>284</ele>
        <time>2014-10-19T15:39:46Z</time>
      </trkpt>
      <trkpt lat="45.81322" lon="5.34158">
        <ele>285</ele>
        <time>2014-10-19T15:39:49Z</time>
      </trkpt>
      <trkpt lat="45.81258" lon="5.34108">
        <ele>293</ele>
        <time>2014-10-19T15:40:20Z</time>
      </trkpt>
      <trkpt lat="45.81207" lon="5.34118">
        <ele>293</ele>
        <time>2014-10-19T15:40:50Z</time>
      </trkpt>
      <trkpt lat="45.81179" lon="5.34133">
        <ele>293</ele>
        <time>2014-10-19T15:41:08Z</time>
      </trkpt>
      <trkpt lat="45.81175" lon="5.34134">
        <ele>293</ele>
        <time>2014-10-19T15:41:11Z</time>
      </trkpt>
      <trkpt lat="45.8117" lon="5.34141">
        <ele>294</ele>
        <time>2014-10-19T15:41:17Z</time>
      </trkpt>
      <trkpt lat="45.8112" lon="5.34174">
        <ele>294</ele>
        <time>2014-10-19T15:41:47Z</time>
      </trkpt>
      <trkpt lat="45.81074" lon="5.34208">
        <ele>293</ele>
        <time>2014-10-19T15:42:18Z</time>
      </trkpt>
      <trkpt lat="45.81068" lon="5.34214">
        <ele>293</ele>
        <time>2014-10-19T15:42:22Z</time>
      </trkpt>
      <trkpt lat="45.81066" lon="5.34218">
        <ele>293</ele>
        <time>2014-10-19T15:42:24Z</time>
      </trkpt>
      <trkpt lat="45.8105" lon="5.34232">
        <ele>294</ele>
        <time>2014-10-19T15:42:36Z</time>
      </trkpt>
      <trkpt lat="45.81012" lon="5.34251">
        <ele>299</ele>
        <time>2014-10-19T15:42:59Z</time>
      </trkpt>
      <trkpt lat="45.80967" lon="5.34249">
        <ele>301</ele>
        <time>2014-10-19T15:43:30Z</time>
      </trkpt>
      <trkpt lat="45.80921" lon="5.3421">
        <ele>302</ele>
        <time>2014-10-19T15:44:03Z</time>
      </trkpt>
      <trkpt lat="45.80902" lon="5.3418">
        <ele>304</ele>
        <time>2014-10-19T15:44:24Z</time>
      </trkpt>
      <trkpt lat="45.80895" lon="5.34176">
        <ele>305</ele>
        <time>2014-10-19T15:44:29Z</time>
      </trkpt>
      <trkpt lat="45.80839" lon="5.34169">
        <ele>307</ele>
        <time>2014-10-19T15:45:00Z</time>
      </trkpt>
      <trkpt lat="45.80792" lon="5.34177">
        <ele>312</ele>
        <time>2014-10-19T15:45:31Z</time>
      </trkpt>
      <trkpt lat="45.80744" lon="5.34198">
        <ele>314</ele>
        <time>2014-10-19T15:46:02Z</time>
      </trkpt>
      <trkpt lat="45.80705" lon="5.34238">
        <ele>317</ele>
        <time>2014-10-19T15:46:33Z</time>
      </trkpt>
      <trkpt lat="45.80653" lon="5.34242">
        <ele>314</ele>
        <time>2014-10-19T15:47:07Z</time>
      </trkpt>
      <trkpt lat="45.80647" lon="5.3424">
        <ele>314</ele>
        <time>2014-10-19T15:47:09Z</time>
      </trkpt>
      <trkpt lat="45.80636" lon="5.34238">
        <ele>314</ele>
        <time>2014-10-19T15:47:21Z</time>
      </trkpt>
      <trkpt lat="45.8063" lon="5.34243">
        <ele>314</ele>
        <time>2014-10-19T15:47:32Z</time>
      </trkpt>
      <trkpt lat="45.80626" lon="5.34244">
        <ele>314</ele>
        <time>2014-10-19T15:47:34Z</time>
      </trkpt>
      <trkpt lat="45.80621" lon="5.34251">
        <ele>314</ele>
        <time>2014-10-19T15:47:39Z</time>
      </trkpt>
      <trkpt lat="45.80613" lon="5.34253">
        <ele>314</ele>
        <time>2014-10-19T15:47:43Z</time>
      </trkpt>
      <trkpt lat="45.80608" lon="5.34262">
        <ele>314</ele>
        <time>2014-10-19T15:47:48Z</time>
      </trkpt>
      <trkpt lat="45.80606" lon="5.34274">
        <ele>314</ele>
        <time>2014-10-19T15:47:53Z</time>
      </trkpt>
      <trkpt lat="45.80564" lon="5.34327">
        <ele>313</ele>
        <time>2014-10-19T15:48:23Z</time>
      </trkpt>
      <trkpt lat="45.80562" lon="5.34332">
        <ele>313</ele>
        <time>2014-10-19T15:48:26Z</time>
      </trkpt>
      <trkpt lat="45.80524" lon="5.3436">
        <ele>310</ele>
        <time>2014-10-19T15:48:53Z</time>
      </trkpt>
      <trkpt lat="45.80505" lon="5.34394">
        <ele>309</ele>
        <time>2014-10-19T15:49:09Z</time>
      </trkpt>
      <trkpt lat="45.80469" lon="5.34425">
        <ele>308</ele>
        <time>2014-10-19T15:49:37Z</time>
      </trkpt>
      <trkpt lat="45.80467" lon="5.34428">
        <ele>308</ele>
        <time>2014-10-19T15:49:44Z</time>
      </trkpt>
      <trkpt lat="45.80461" lon="5.34424">
        <ele>307</ele>
        <time>2014-10-19T15:49:54Z</time>
      </trkpt>
      <trkpt lat="45.80459" lon="5.34418">
        <ele>307</ele>
        <time>2014-10-19T15:50:00Z</time>
      </trkpt>
      <trkpt lat="45.80425" lon="5.34375">
        <ele>313</ele>
        <time>2014-10-19T15:50:33Z</time>
      </trkpt>
      <trkpt lat="45.80414" lon="5.34368">
        <ele>315</ele>
        <time>2014-10-19T15:50:40Z</time>
      </trkpt>
      <trkpt lat="45.80404" lon="5.34367">
        <ele>315</ele>
        <time>2014-10-19T15:50:46Z</time>
      </trkpt>
      <trkpt lat="45.804" lon="5.34368">
        <ele>315</ele>
        <time>2014-10-19T15:50:49Z</time>
      </trkpt>
      <trkpt lat="45.80372" lon="5.34369">
        <ele>318</ele>
        <time>2014-10-19T15:51:09Z</time>
      </trkpt>
      <trkpt lat="45.8036" lon="5.34369">
        <ele>319</ele>
        <time>2014-10-19T15:51:15Z</time>
      </trkpt>
      <trkpt lat="45.80355" lon="5.34369">
        <ele>320</ele>
        <time>2014-10-19T15:51:18Z</time>
      </trkpt>
      <trkpt lat="45.80314" lon="5.34332">
        <ele>323</ele>
        <time>2014-10-19T15:51:50Z</time>
      </trkpt>
      <trkpt lat="45.80301" lon="5.34303">
        <ele>322</ele>
        <time>2014-10-19T15:52:08Z</time>
      </trkpt>
      <trkpt lat="45.80291" lon="5.34239">
        <ele>326</ele>
        <time>2014-10-19T15:52:39Z</time>
      </trkpt>
      <trkpt lat="45.8028" lon="5.34219">
        <ele>326</ele>
        <time>2014-10-19T15:52:52Z</time>
      </trkpt>
      <trkpt lat="45.80232" lon="5.34167">
        <ele>330</ele>
        <time>2014-10-19T15:53:22Z</time>
      </trkpt>
      <trkpt lat="45.80198" lon="5.34127">
        <ele>335</ele>
        <time>2014-10-19T15:53:52Z</time>
      </trkpt>
      <trkpt lat="45.8017" lon="5.34081">
        <ele>341</ele>
        <time>2014-10-19T15:54:22Z</time>
      </trkpt>
      <trkpt lat="45.80165" lon="5.34077">
        <ele>341</ele>
        <time>2014-10-19T15:54:26Z</time>
      </trkpt>
      <trkpt lat="45.80133" lon="5.34037">
        <ele>341</ele>
        <time>2014-10-19T15:54:56Z</time>
      </trkpt>
      <trkpt lat="45.80127" lon="5.34031">
        <ele>341</ele>
        <time>2014-10-19T15:55:03Z</time>
      </trkpt>
      <trkpt lat="45.80114" lon="5.34002">
        <ele>339</ele>
        <time>2014-10-19T15:55:18Z</time>
      </trkpt>
      <trkpt lat="45.80101" lon="5.33993">
        <ele>338</ele>
        <time>2014-10-19T15:55:27Z</time>
      </trkpt>
      <trkpt lat="45.80051" lon="5.33963">
        <ele>340</ele>
        <time>2014-10-19T15:55:58Z</time>
      </trkpt>
      <trkpt lat="45.79995" lon="5.33957">
        <ele>343</ele>
        <time>2014-10-19T15:56:29Z</time>
      </trkpt>
      <trkpt lat="45.79943" lon="5.33951">
        <ele>344</ele>
        <time>2014-10-19T15:56:59Z</time>
      </trkpt>
      <trkpt lat="45.79904" lon="5.33942">
        <ele>348</ele>
        <time>2014-10-19T15:57:31Z</time>
      </trkpt>
      <trkpt lat="45.79853" lon="5.33934">
        <ele>349</ele>
        <time>2014-10-19T15:58:02Z</time>
      </trkpt>
      <trkpt lat="45.798" lon="5.33921">
        <ele>351</ele>
        <time>2014-10-19T15:58:33Z</time>
      </trkpt>
      <trkpt lat="45.79754" lon="5.339">
        <ele>352</ele>
        <time>2014-10-19T15:59:03Z</time>
      </trkpt>
      <trkpt lat="45.79711" lon="5.3388">
        <ele>351</ele>
        <time>2014-10-19T15:59:31Z</time>
      </trkpt>
      <trkpt lat="45.79708" lon="5.33877">
        <ele>351</ele>
        <time>2014-10-19T15:59:37Z</time>
      </trkpt>
      <trkpt lat="45.79705" lon="5.33876">
        <ele>351</ele>
        <time>2014-10-19T15:59:42Z</time>
      </trkpt>
      <trkpt lat="45.79656" lon="5.33847">
        <ele>351</ele>
        <time>2014-10-19T16:00:13Z</time>
      </trkpt>
      <trkpt lat="45.7962" lon="5.33826">
        <ele>349</ele>
        <time>2014-10-19T16:00:40Z</time>
      </trkpt>
      <trkpt lat="45.79571" lon="5.33783">
        <ele>348</ele>
        <time>2014-10-19T16:01:11Z</time>
      </trkpt>
      <trkpt lat="45.79535" lon="5.33752">
        <ele>347</ele>
        <time>2014-10-19T16:01:43Z</time>
      </trkpt>
      <trkpt lat="45.79493" lon="5.3372">
        <ele>345</ele>
        <time>2014-10-19T16:02:14Z</time>
      </trkpt>
      <trkpt lat="45.79439" lon="5.33704">
        <ele>345</ele>
        <time>2014-10-19T16:02:45Z</time>
      </trkpt>
      <trkpt lat="45.79393" lon="5.33713">
        <ele>347</ele>
        <time>2014-10-19T16:03:15Z</time>
      </trkpt>
      <trkpt lat="45.79348" lon="5.33686">
        <ele>350</ele>
        <time>2014-10-19T16:03:47Z</time>
      </trkpt>
      <trkpt lat="45.79302" lon="5.33714">
        <ele>353</ele>
        <time>2014-10-19T16:04:17Z</time>
      </trkpt>
      <trkpt lat="45.79249" lon="5.33732">
        <ele>356</ele>
        <time>2014-10-19T16:04:48Z</time>
      </trkpt>
      <trkpt lat="45.79201" lon="5.33717">
        <ele>360</ele>
        <time>2014-10-19T16:05:19Z</time>
      </trkpt>
      <trkpt lat="45.79148" lon="5.33694">
        <ele>363</ele>
        <time>2014-10-19T16:05:50Z</time>
      </trkpt>
      <trkpt lat="45.79098" lon="5.33683">
        <ele>363</ele>
        <time>2014-10-19T16:06:20Z</time>
      </trkpt>
      <trkpt lat="45.7905" lon="5.33712">
        <ele>363</ele>
        <time>2014-10-19T16:06:50Z</time>
      </trkpt>
      <trkpt lat="45.79016" lon="5.33767">
        <ele>364</ele>
        <time>2014-10-19T16:07:21Z</time>
      </trkpt>
      <trkpt lat="45.78988" lon="5.33825">
        <ele>363</ele>
        <time>2014-10-19T16:07:52Z</time>
      </trkpt>
      <trkpt lat="45.78948" lon="5.33878">
        <ele>362</ele>
        <time>2014-10-19T16:08:23Z</time>
      </trkpt>
      <trkpt lat="45.78895" lon="5.33896">
        <ele>360</ele>
        <time>2014-10-19T16:08:54Z</time>
      </trkpt>
      <trkpt lat="45.78844" lon="5.33908">
        <ele>358</ele>
        <time>2014-10-19T16:09:25Z</time>
      </trkpt>
      <trkpt lat="45.78834" lon="5.33909">
        <ele>358</ele>
        <time>2014-10-19T16:09:31Z</time>
      </trkpt>
      <trkpt lat="45.78834" lon="5.33912">
        <ele>357</ele>
        <time>2014-10-19T16:09:36Z</time>
      </trkpt>
      <trkpt lat="45.78782" lon="5.33907">
        <ele>355</ele>
        <time>2014-10-19T16:10:07Z</time>
      </trkpt>
      <trkpt lat="45.78729" lon="5.33891">
        <ele>354</ele>
        <time>2014-10-19T16:10:38Z</time>
      </trkpt>
      <trkpt lat="45.78725" lon="5.33891">
        <ele>354</ele>
        <time>2014-10-19T16:10:41Z</time>
      </trkpt>
      <trkpt lat="45.78714" lon="5.33885">
        <ele>353</ele>
        <time>2014-10-19T16:10:48Z</time>
      </trkpt>
      <trkpt lat="45.78667" lon="5.33894">
        <ele>352</ele>
        <time>2014-10-19T16:11:18Z</time>
      </trkpt>
      <trkpt lat="45.7862" lon="5.33921">
        <ele>352</ele>
        <time>2014-10-19T16:11:48Z</time>
      </trkpt>
      <trkpt lat="45.78572" lon="5.33903">
        <ele>352</ele>
        <time>2014-10-19T16:12:19Z</time>
      </trkpt>
      <trkpt lat="45.7852" lon="5.33883">
        <ele>351</ele>
        <time>2014-10-19T16:12:50Z</time>
      </trkpt>
      <trkpt lat="45.78471" lon="5.33862">
        <ele>351</ele>
        <time>2014-10-19T16:13:20Z</time>
      </trkpt>
      <trkpt lat="45.7842" lon="5.33844">
        <ele>352</ele>
        <time>2014-10-19T16:13:50Z</time>
      </trkpt>
      <trkpt lat="45.78419" lon="5.33848">
        <ele>352</ele>
        <time>2014-10-19T16:13:52Z</time>
      </trkpt>
      <trkpt lat="45.78417" lon="5.33859">
        <ele>352</ele>
        <time>2014-10-19T16:13:57Z</time>
      </trkpt>
      <trkpt lat="45.78416" lon="5.33855">
        <ele>352</ele>
        <time>2014-10-19T16:14:00Z</time>
      </trkpt>
      <trkpt lat="45.78415" lon="5.33851">
        <ele>352</ele>
        <time>2014-10-19T16:14:02Z</time>
      </trkpt>
      <trkpt lat="45.78395" lon="5.33841">
        <ele>353</ele>
        <time>2014-10-19T16:14:14Z</time>
      </trkpt>
      <trkpt lat="45.78349" lon="5.33833">
        <ele>353</ele>
        <time>2014-10-19T16:14:45Z</time>
      </trkpt>
      <trkpt lat="45.78297" lon="5.33819">
        <ele>352</ele>
        <time>2014-10-19T16:15:15Z</time>
      </trkpt>
      <trkpt lat="45.7826" lon="5.33817">
        <ele>352</ele>
        <time>2014-10-19T16:15:46Z</time>
      </trkpt>
      <trkpt lat="45.78258" lon="5.33817">
        <ele>352</ele>
        <time>2014-10-19T16:15:47Z</time>
      </trkpt>
      <trkpt lat="45.78205" lon="5.33814">
        <ele>353</ele>
        <time>2014-10-19T16:16:19Z</time>
      </trkpt>
      <trkpt lat="45.78169" lon="5.33814">
        <ele>353</ele>
        <time>2014-10-19T16:16:43Z</time>
      </trkpt>
      <trkpt lat="45.78163" lon="5.33823">
        <ele>352</ele>
        <time>2014-10-19T16:16:52Z</time>
      </trkpt>
      <trkpt lat="45.78069" lon="5.33792">
        <ele>348</ele>
        <time>2014-10-19T16:17:15Z</time>
      </trkpt>
      <trkpt lat="45.78069" lon="5.33806">
        <ele>348</ele>
        <time>2014-10-19T16:17:20Z</time>
      </trkpt>
      <trkpt lat="45.78071" lon="5.33819">
        <ele>348</ele>
        <time>2014-10-19T16:17:23Z</time>
      </trkpt>
      <trkpt lat="45.78069" lon="5.33823">
        <ele>348</ele>
        <time>2014-10-19T16:17:25Z</time>
      </trkpt>
      <trkpt lat="45.78066" lon="5.33823">
        <ele>348</ele>
        <time>2014-10-19T16:17:27Z</time>
      </trkpt>
      <trkpt lat="45.78042" lon="5.33814">
        <ele>347</ele>
        <time>2014-10-19T16:17:40Z</time>
      </trkpt>
      <trkpt lat="45.77968" lon="5.33699">
        <ele>346</ele>
        <time>2014-10-19T16:18:11Z</time>
      </trkpt>
      <trkpt lat="45.77943" lon="5.33671">
        <ele>347</ele>
        <time>2014-10-19T16:18:31Z</time>
      </trkpt>
      <trkpt lat="45.77941" lon="5.33664">
        <ele>347</ele>
        <time>2014-10-19T16:18:36Z</time>
      </trkpt>
      <trkpt lat="45.77908" lon="5.33605">
        <ele>348</ele>
        <time>2014-10-19T16:19:06Z</time>
      </trkpt>
      <trkpt lat="45.77886" lon="5.33546">
        <ele>348</ele>
        <time>2014-10-19T16:19:35Z</time>
      </trkpt>
      <trkpt lat="45.77878" lon="5.33478">
        <ele>350</ele>
        <time>2014-10-19T16:20:05Z</time>
      </trkpt>
      <trkpt lat="45.77859" lon="5.33431">
        <ele>352</ele>
        <time>2014-10-19T16:20:27Z</time>
      </trkpt>
      <trkpt lat="45.7782" lon="5.33364">
        <ele>352</ele>
        <time>2014-10-19T16:20:48Z</time>
      </trkpt>
      <trkpt lat="45.77751" lon="5.33159">
        <ele>356</ele>
        <time>2014-10-19T16:21:18Z</time>
      </trkpt>
      <trkpt lat="45.77665" lon="5.3304">
        <ele>352</ele>
        <time>2014-10-19T16:21:48Z</time>
      </trkpt>
      <trkpt lat="45.77634" lon="5.32993">
        <ele>351</ele>
        <time>2014-10-19T16:22:19Z</time>
      </trkpt>
      <trkpt lat="45.77627" lon="5.32983">
        <ele>350</ele>
        <time>2014-10-19T16:22:25Z</time>
      </trkpt>
      <trkpt lat="45.77607" lon="5.3298">
        <ele>350</ele>
        <time>2014-10-19T16:22:38Z</time>
      </trkpt>
      <trkpt lat="45.7756" lon="5.32978">
        <ele>348</ele>
        <time>2014-10-19T16:23:08Z</time>
      </trkpt>
      <trkpt lat="45.77513" lon="5.32957">
        <ele>345</ele>
        <time>2014-10-19T16:23:39Z</time>
      </trkpt>
      <trkpt lat="45.77462" lon="5.32955">
        <ele>344</ele>
        <time>2014-10-19T16:24:10Z</time>
      </trkpt>
      <trkpt lat="45.77381" lon="5.3295">
        <ele>342</ele>
        <time>2014-10-19T16:24:40Z</time>
      </trkpt>
      <trkpt lat="45.7727" lon="5.32919">
        <ele>343</ele>
        <time>2014-10-19T16:25:10Z</time>
      </trkpt>
      <trkpt lat="45.77227" lon="5.32918">
        <ele>341</ele>
        <time>2014-10-19T16:25:27Z</time>
      </trkpt>
      <trkpt lat="45.77181" lon="5.32967">
        <ele>337</ele>
        <time>2014-10-19T16:25:57Z</time>
      </trkpt>
      <trkpt lat="45.77142" lon="5.33016">
        <ele>337</ele>
        <time>2014-10-19T16:26:27Z</time>
      </trkpt>
      <trkpt lat="45.77104" lon="5.33064">
        <ele>336</ele>
        <time>2014-10-19T16:26:57Z</time>
      </trkpt>
      <trkpt lat="45.77064" lon="5.33108">
        <ele>337</ele>
        <time>2014-10-19T16:27:28Z</time>
      </trkpt>
      <trkpt lat="45.77025" lon="5.3315">
        <ele>334</ele>
        <time>2014-10-19T16:27:59Z</time>
      </trkpt>
      <trkpt lat="45.76983" lon="5.33195">
        <ele>331</ele>
        <time>2014-10-19T16:28:29Z</time>
      </trkpt>
      <trkpt lat="45.76942" lon="5.33245">
        <ele>329</ele>
        <time>2014-10-19T16:29:00Z</time>
      </trkpt>
      <trkpt lat="45.76906" lon="5.33303">
        <ele>327</ele>
        <time>2014-10-19T16:29:31Z</time>
      </trkpt>
      <trkpt lat="45.76878" lon="5.33363">
        <ele>324</ele>
        <time>2014-10-19T16:30:01Z</time>
      </trkpt>
      <trkpt lat="45.76849" lon="5.33433">
        <ele>320</ele>
        <time>2014-10-19T16:30:32Z</time>
      </trkpt>
      <trkpt lat="45.76829" lon="5.3347">
        <ele>320</ele>
        <time>2014-10-19T16:30:52Z</time>
      </trkpt>
      <trkpt lat="45.76833" lon="5.33474">
        <ele>320</ele>
        <time>2014-10-19T16:30:55Z</time>
      </trkpt>
      <trkpt lat="45.76929" lon="5.33525">
        <ele>323</ele>
        <time>2014-10-19T16:31:25Z</time>
      </trkpt>
      <trkpt lat="45.77049" lon="5.33693">
        <ele>326</ele>
        <time>2014-10-19T16:31:55Z</time>
      </trkpt>
      <trkpt lat="45.77205" lon="5.33797">
        <ele>327</ele>
        <time>2014-10-19T16:32:25Z</time>
      </trkpt>
      <trkpt lat="45.77335" lon="5.33919">
        <ele>328</ele>
        <time>2014-10-19T16:32:55Z</time>
      </trkpt>
      <trkpt lat="45.77371" lon="5.33959">
        <ele>330</ele>
        <time>2014-10-19T16:33:09Z</time>
      </trkpt>
      <trkpt lat="45.77372" lon="5.33969">
        <ele>330</ele>
        <time>2014-10-19T16:33:13Z</time>
      </trkpt>
      <trkpt lat="45.77363" lon="5.34046">
        <ele>330</ele>
        <time>2014-10-19T16:33:44Z</time>
      </trkpt>
      <trkpt lat="45.77384" lon="5.34112">
        <ele>331</ele>
        <time>2014-10-19T16:34:15Z</time>
      </trkpt>
      <trkpt lat="45.77365" lon="5.34179">
        <ele>330</ele>
        <time>2014-10-19T16:34:47Z</time>
      </trkpt>
      <trkpt lat="45.77345" lon="5.34214">
        <ele>328</ele>
        <time>2014-10-19T16:35:04Z</time>
      </trkpt>
      <trkpt lat="45.77339" lon="5.34243">
        <ele>327</ele>
        <time>2014-10-19T16:35:29Z</time>
      </trkpt>
      <trkpt lat="45.77358" lon="5.34307">
        <ele>327</ele>
        <time>2014-10-19T16:35:59Z</time>
      </trkpt>
      <trkpt lat="45.77348" lon="5.3435">
        <ele>326</ele>
        <time>2014-10-19T16:36:18Z</time>
      </trkpt>
      <trkpt lat="45.77348" lon="5.34353">
        <ele>325</ele>
        <time>2014-10-19T16:37:12Z</time>
      </trkpt>
      <trkpt lat="45.77329" lon="5.3441">
        <ele>326</ele>
        <time>2014-10-19T16:37:43Z</time>
      </trkpt>
      <trkpt lat="45.77308" lon="5.34462">
        <ele>326</ele>
        <time>2014-10-19T16:38:13Z</time>
      </trkpt>
      <trkpt lat="45.77307" lon="5.34468">
        <ele>326</ele>
        <time>2014-10-19T16:38:17Z</time>
      </trkpt>
      <trkpt lat="45.77307" lon="5.34472">
        <ele>326</ele>
        <time>2014-10-19T16:38:19Z</time>
      </trkpt>
      <trkpt lat="45.77335" lon="5.34525">
        <ele>324</ele>
        <time>2014-10-19T16:38:50Z</time>
      </trkpt>
      <trkpt lat="45.77341" lon="5.34549">
        <ele>324</ele>
        <time>2014-10-19T16:39:05Z</time>
      </trkpt>
      <trkpt lat="45.7734" lon="5.34599">
        <ele>322</ele>
        <time>2014-10-19T16:39:33Z</time>
      </trkpt>
      <trkpt lat="45.77337" lon="5.34603">
        <ele>322</ele>
        <time>2014-10-19T16:39:35Z</time>
      </trkpt>
      <trkpt lat="45.77334" lon="5.34603">
        <ele>322</ele>
        <time>2014-10-19T16:39:37Z</time>
      </trkpt>
      <trkpt lat="45.7732" lon="5.34607">
        <ele>322</ele>
        <time>2014-10-19T16:39:49Z</time>
      </trkpt>
      <trkpt lat="45.77327" lon="5.34607">
        <ele>323</ele>
        <time>2014-10-19T16:41:00Z</time>
      </trkpt>
    </trkseg>
  </trk>
</gpx>